<?xml version="1.0" encoding="UTF-8" standalone="yes"?><gpx xmlns="http://www.topografix.com/GPX/1/1" xmlns:gpxx="http://www.garmin.com/xmlschemas/GpxExtensions/v3" xmlns:rcxx="http://www.routeconverter.de/xmlschemas/RouteCatalogExtensions/1.0" xmlns:nmea="http://trekbuddy.net/2009/01/gpx/nmea" version="1.1" creator="Generated by Christian Pesch's RouteConverter. See http://www.routeconverter.de"><trk><name>2 (c)RuckiZucki #2009-04-19 13:57:11</name><trkseg><trkpt lon="11.2221219" lat="48.0552265"><ele>592.0</ele><time>2009-04-19T11:57:11.000Z</time><name>Dorfstraße 33-39, 82229 Seefeld, Germany</name><extensions><nmea:speed>0.0</nmea:speed></extensions></trkpt><trkpt lon="11.2221348" lat="48.0553701"><ele>592.0</ele><time>2009-04-19T11:57:35.000Z</time><name>Dorfstraße 33-39, 82229 Seefeld, Germany</name><extensions><nmea:speed>0.0</nmea:speed></extensions></trkpt><trkpt lon="11.2222458" lat="48.055612"><ele>590.0</ele><time>2009-04-19T11:57:49.000Z</time><name>Dorfstraße 24-40, 82229 Seefeld, Germany</name><extensions><nmea:speed>0.0</nmea:speed></extensions></trkpt><trkpt lon="11.2223792" lat="48.0555316"><ele>590.0</ele><time>2009-04-19T11:58:28.000Z</time><name>Dorfstraße 24-40, 82229 Seefeld, Germany</name><extensions><nmea:speed>0.0</nmea:speed></extensions></trkpt><trkpt lon="11.2225411" lat="48.055403"><ele>592.0</ele><time>2009-04-19T11:58:39.000Z</time><name>Dorfstraße 24-40, 82229 Seefeld, Germany</name><extensions><nmea:speed>0.0</nmea:speed></extensions></trkpt><trkpt lon="11.2226754" lat="48.0553347"><ele>592.0</ele><time>2009-04-19T11:58:49.000Z</time><name>Dorfstraße 24-40, 82229 Seefeld, Germany</name><extensions><nmea:speed>0.0</nmea:speed></extensions></trkpt><trkpt lon="11.2229052" lat="48.0552617"><ele>592.0</ele><time>2009-04-19T11:59:02.000Z</time><name>Dorfstraße 24-40, 82229 Seefeld, Germany</name><extensions><nmea:speed>0.0</nmea:speed></extensions></trkpt><trkpt lon="11.2231346" lat="48.055267"><ele>591.0</ele><time>2009-04-19T11:59:14.000Z</time><name>Dorfstraße 24-40, 82229 Seefeld, Germany</name><extensions><nmea:speed>0.0</nmea:speed></extensions></trkpt><trkpt lon="11.2233031" lat="48.0552662"><ele>591.0</ele><time>2009-04-19T11:59:23.000Z</time><name>Dorfstraße 24-40, 82229 Seefeld, Germany</name><extensions><nmea:speed>0.0</nmea:speed></extensions></trkpt><trkpt lon="11.2235754" lat="48.0551755"><ele>591.0</ele><time>2009-04-19T11:59:37.000Z</time><name>Dellinger Weg 2, 82229 Seefeld, Germany</name><extensions><nmea:speed>0.0</nmea:speed></extensions></trkpt><trkpt lon="11.2238018" lat="48.0551871"><ele>588.0</ele><time>2009-04-19T11:59:52.000Z</time><name>Dellinger Weg 2, 82229 Seefeld, Germany</name><extensions><nmea:speed>0.0</nmea:speed></extensions></trkpt><trkpt lon="11.2239236" lat="48.05523"><ele>588.0</ele><time>2009-04-19T12:00:02.000Z</time><name>Dellinger Weg 2, 82229 Seefeld, Germany</name><extensions><nmea:speed>0.0</nmea:speed></extensions></trkpt><trkpt lon="11.2241237" lat="48.0552957"><ele>588.0</ele><time>2009-04-19T12:00:16.000Z</time><name>Dellinger Weg 2, 82229 Seefeld, Germany</name><extensions><nmea:speed>0.0</nmea:speed></extensions></trkpt><trkpt lon="11.2242514" lat="48.0553763"><ele>588.0</ele><time>2009-04-19T12:00:28.000Z</time><name>Dellinger Weg 2, 82229 Seefeld, Germany</name><extensions><nmea:speed>0.0</nmea:speed></extensions></trkpt><trkpt lon="11.2244436" lat="48.0554469"><ele>588.0</ele><time>2009-04-19T12:00:41.000Z</time><name>Dellinger Weg 2, 82229 Seefeld, Germany</name><extensions><nmea:speed>0.0</nmea:speed></extensions></trkpt><trkpt lon="11.2247043" lat="48.0555447"><ele>585.0</ele><time>2009-04-19T12:01:01.000Z</time><name>Dellinger Weg 3, 82229 Seefeld, Germany</name><extensions><nmea:speed>0.0</nmea:speed></extensions></trkpt><trkpt lon="11.2248614" lat="48.0555755"><ele>585.0</ele><time>2009-04-19T12:01:11.000Z</time><name>Dellinger Weg 3, 82229 Seefeld, Germany</name><extensions><nmea:speed>0.0</nmea:speed></extensions></trkpt><trkpt lon="11.2250662" lat="48.0556238"><ele>585.0</ele><time>2009-04-19T12:01:26.000Z</time><name>Dellinger Weg 3, 82229 Seefeld, Germany</name><extensions><nmea:speed>0.0</nmea:speed></extensions></trkpt><trkpt lon="11.2253342" lat="48.0556822"><ele>585.0</ele><time>2009-04-19T12:02:09.000Z</time><name>Dellinger Weg 3, 82229 Seefeld, Germany</name><extensions><nmea:speed>0.0</nmea:speed></extensions></trkpt><trkpt lon="11.2254882" lat="48.0557347"><ele>583.0</ele><time>2009-04-19T12:02:21.000Z</time><name>Dellinger Weg 3, 82229 Seefeld, Germany</name><extensions><nmea:speed>0.0</nmea:speed></extensions></trkpt><trkpt lon="11.2256647" lat="48.0557655"><ele>583.0</ele><time>2009-04-19T12:02:38.000Z</time><name>Dellinger Weg 3, 82229 Seefeld, Germany</name><extensions><nmea:speed>0.0</nmea:speed></extensions></trkpt><trkpt lon="11.2258227" lat="48.055823"><ele>583.0</ele><time>2009-04-19T12:03:04.000Z</time><name>Dellinger Weg 3, 82229 Seefeld, Germany</name><extensions><nmea:speed>0.0</nmea:speed></extensions></trkpt><trkpt lon="11.2259786" lat="48.0558471"><ele>583.0</ele><time>2009-04-19T12:03:14.000Z</time><name>Dellinger Weg 3, 82229 Seefeld, Germany</name><extensions><nmea:speed>0.0</nmea:speed></extensions></trkpt><trkpt lon="11.2261363" lat="48.0558832"><ele>583.0</ele><time>2009-04-19T12:03:30.000Z</time><name>Dellinger Weg 3, 82229 Seefeld, Germany</name><extensions><nmea:speed>0.0</nmea:speed></extensions></trkpt><trkpt lon="11.2264707" lat="48.0559736"><ele>581.0</ele><time>2009-04-19T12:04:42.000Z</time><name>Dellinger Weg 3, 82229 Seefeld, Germany</name><extensions><nmea:speed>0.0</nmea:speed></extensions></trkpt><trkpt lon="11.2266175" lat="48.0560118"><ele>581.0</ele><time>2009-04-19T12:04:53.000Z</time><name>Dellinger Weg 3, 82229 Seefeld, Germany</name><extensions><nmea:speed>0.0</nmea:speed></extensions></trkpt><trkpt lon="11.226865" lat="48.056128"><ele>581.0</ele><time>2009-04-19T12:05:39.000Z</time><name>Dellinger Weg 3, 82229 Seefeld, Germany</name><extensions><nmea:speed>0.0</nmea:speed></extensions></trkpt><trkpt lon="11.2271244" lat="48.056179"><ele>576.0</ele><time>2009-04-19T12:06:00.000Z</time><name>Dellinger Weg 3, 82229 Seefeld, Germany</name><extensions><nmea:speed>0.0</nmea:speed></extensions></trkpt><trkpt lon="11.2273418" lat="48.0561941"><ele>576.0</ele><time>2009-04-19T12:06:20.000Z</time><name>Dellinger Weg 3, 82229 Seefeld, Germany</name><extensions><nmea:speed>0.0</nmea:speed></extensions></trkpt><trkpt lon="11.227515" lat="48.0562245"><ele>576.0</ele><time>2009-04-19T12:06:33.000Z</time><name>Dellinger Weg 3, 82229 Seefeld, Germany</name><extensions><nmea:speed>0.0</nmea:speed></extensions></trkpt><trkpt lon="11.227683" lat="48.0562423"><ele>576.0</ele><time>2009-04-19T12:07:28.000Z</time><name>Dellinger Weg 3, 82229 Seefeld, Germany</name><extensions><nmea:speed>0.0</nmea:speed></extensions></trkpt><trkpt lon="11.2278562" lat="48.0562852"><ele>584.0</ele><time>2009-04-19T12:07:40.000Z</time><name>82229 Seefeld, Germany</name><extensions><nmea:speed>0.0</nmea:speed></extensions></trkpt><trkpt lon="11.2280402" lat="48.0563539"><ele>579.0</ele><time>2009-04-19T12:07:52.000Z</time><name>82229 Seefeld, Germany</name><extensions><nmea:speed>0.0</nmea:speed></extensions></trkpt><trkpt lon="11.2281985" lat="48.0564275"><ele>579.0</ele><time>2009-04-19T12:08:05.000Z</time><name>82229 Seefeld, Germany</name><extensions><nmea:speed>0.0</nmea:speed></extensions></trkpt><trkpt lon="11.2283588" lat="48.056505"><ele>579.0</ele><time>2009-04-19T12:08:18.000Z</time><name>82229 Seefeld, Germany</name><extensions><nmea:speed>0.0</nmea:speed></extensions></trkpt><trkpt lon="11.2285412" lat="48.0565966"><ele>579.0</ele><time>2009-04-19T12:08:33.000Z</time><name>82229 Seefeld, Germany</name><extensions><nmea:speed>0.0</nmea:speed></extensions></trkpt><trkpt lon="11.2287103" lat="48.056661"><ele>579.0</ele><time>2009-04-19T12:09:58.000Z</time><name>82229 Seefeld, Germany</name><extensions><nmea:speed>0.0</nmea:speed></extensions></trkpt><trkpt lon="11.2288782" lat="48.0567404"><ele>573.0</ele><time>2009-04-19T12:10:10.000Z</time><name>82229 Seefeld, Germany</name><extensions><nmea:speed>0.0</nmea:speed></extensions></trkpt><trkpt lon="11.2290293" lat="48.0568065"><ele>573.0</ele><time>2009-04-19T12:10:23.000Z</time><name>82229 Seefeld, Germany</name><extensions><nmea:speed>0.0</nmea:speed></extensions></trkpt><trkpt lon="11.2291878" lat="48.0568689"><ele>573.0</ele><time>2009-04-19T12:10:36.000Z</time><name>82229 Seefeld, Germany</name><extensions><nmea:speed>0.0</nmea:speed></extensions></trkpt><trkpt lon="11.2293239" lat="48.056952"><ele>573.0</ele><time>2009-04-19T12:10:49.000Z</time><name>82229 Seefeld, Germany</name><extensions><nmea:speed>0.0</nmea:speed></extensions></trkpt><trkpt lon="11.2294492" lat="48.0570291"><ele>573.0</ele><time>2009-04-19T12:11:00.000Z</time><name>82229 Seefeld, Germany</name><extensions><nmea:speed>0.0</nmea:speed></extensions></trkpt><trkpt lon="11.2295736" lat="48.0571061"><ele>581.0</ele><time>2009-04-19T12:11:11.000Z</time><name>82229 Seefeld, Germany</name><extensions><nmea:speed>0.0</nmea:speed></extensions></trkpt><trkpt lon="11.229695" lat="48.0571711"><ele>575.0</ele><time>2009-04-19T12:11:22.000Z</time><name>82229 Seefeld, Germany</name><extensions><nmea:speed>0.0</nmea:speed></extensions></trkpt><trkpt lon="11.2298903" lat="48.057288"><ele>575.0</ele><time>2009-04-19T12:11:40.000Z</time><name>82229 Seefeld, Germany</name><extensions><nmea:speed>0.0</nmea:speed></extensions></trkpt><trkpt lon="11.2300211" lat="48.0573517"><ele>575.0</ele><time>2009-04-19T12:11:53.000Z</time><name>82229 Seefeld, Germany</name><extensions><nmea:speed>0.0</nmea:speed></extensions></trkpt><trkpt lon="11.2301509" lat="48.057432"><ele>575.0</ele><time>2009-04-19T12:12:05.000Z</time><name>82229 Seefeld, Germany</name><extensions><nmea:speed>0.0</nmea:speed></extensions></trkpt><trkpt lon="11.2303544" lat="48.0575451"><ele>575.0</ele><time>2009-04-19T12:12:23.000Z</time><name>82229 Seefeld, Germany</name><extensions><nmea:speed>0.0</nmea:speed></extensions></trkpt><trkpt lon="11.2305599" lat="48.0576858"><ele>573.0</ele><time>2009-04-19T12:12:42.000Z</time><name>82229 Seefeld, Germany</name><extensions><nmea:speed>0.0</nmea:speed></extensions></trkpt><trkpt lon="11.2306899" lat="48.0577656"><ele>573.0</ele><time>2009-04-19T12:12:55.000Z</time><name>82229 Seefeld, Germany</name><extensions><nmea:speed>0.0</nmea:speed></extensions></trkpt><trkpt lon="11.2307941" lat="48.0578236"><ele>573.0</ele><time>2009-04-19T12:13:06.000Z</time><name>82229 Seefeld, Germany</name><extensions><nmea:speed>0.0</nmea:speed></extensions></trkpt><trkpt lon="11.2309636" lat="48.057913"><ele>573.0</ele><time>2009-04-19T12:13:36.000Z</time><name>82229 Seefeld, Germany</name><extensions><nmea:speed>0.0</nmea:speed></extensions></trkpt><trkpt lon="11.231179" lat="48.0580379"><ele>582.0</ele><time>2009-04-19T12:13:59.000Z</time><name>82229 Seefeld, Germany</name><extensions><nmea:speed>0.0</nmea:speed></extensions></trkpt><trkpt lon="11.231325" lat="48.0580827"><ele>578.0</ele><time>2009-04-19T12:14:11.000Z</time><name>82229 Seefeld, Germany</name><extensions><nmea:speed>0.0</nmea:speed></extensions></trkpt><trkpt lon="11.2314885" lat="48.0581454"><ele>578.0</ele><time>2009-04-19T12:14:23.000Z</time><name>82229 Seefeld, Germany</name><extensions><nmea:speed>0.0</nmea:speed></extensions></trkpt><trkpt lon="11.2316776" lat="48.0582248"><ele>578.0</ele><time>2009-04-19T12:14:36.000Z</time><name>82229 Seefeld, Germany</name><extensions><nmea:speed>0.0</nmea:speed></extensions></trkpt><trkpt lon="11.2318269" lat="48.0582935"><ele>578.0</ele><time>2009-04-19T12:14:47.000Z</time><name>82229 Seefeld, Germany</name><extensions><nmea:speed>0.0</nmea:speed></extensions></trkpt><trkpt lon="11.2319543" lat="48.0583702"><ele>578.0</ele><time>2009-04-19T12:14:58.000Z</time><name>82229 Seefeld, Germany</name><extensions><nmea:speed>0.0</nmea:speed></extensions></trkpt><trkpt lon="11.2320758" lat="48.0584413"><ele>578.0</ele><time>2009-04-19T12:15:09.000Z</time><name>82229 Seefeld, Germany</name><extensions><nmea:speed>0.0</nmea:speed></extensions></trkpt><trkpt lon="11.2322263" lat="48.0585446"><ele>572.0</ele><time>2009-04-19T12:15:38.000Z</time><name>82229 Seefeld, Germany</name><extensions><nmea:speed>0.0</nmea:speed></extensions></trkpt><trkpt lon="11.232435" lat="48.0587319"><ele>572.0</ele><time>2009-04-19T12:16:15.000Z</time><name>82229 Seefeld, Germany</name><extensions><nmea:speed>0.0</nmea:speed></extensions></trkpt><trkpt lon="11.2325842" lat="48.0588499"><ele>581.0</ele><time>2009-04-19T12:16:28.000Z</time><name>82229 Seefeld, Germany</name><extensions><nmea:speed>0.0</nmea:speed></extensions></trkpt><trkpt lon="11.2327251" lat="48.05897"><ele>581.0</ele><time>2009-04-19T12:16:58.000Z</time><name>82229 Seefeld, Germany</name><extensions><nmea:speed>0.0</nmea:speed></extensions></trkpt><trkpt lon="11.2328408" lat="48.0590756"><ele>581.0</ele><time>2009-04-19T12:17:10.000Z</time><name>82229 Seefeld, Germany</name><extensions><nmea:speed>0.0</nmea:speed></extensions></trkpt><trkpt lon="11.2329602" lat="48.0591856"><ele>575.0</ele><time>2009-04-19T12:17:22.000Z</time><name>82229 Seefeld, Germany</name><extensions><nmea:speed>0.0</nmea:speed></extensions></trkpt><trkpt lon="11.233042" lat="48.0592578"><ele>575.0</ele><time>2009-04-19T12:17:32.000Z</time><name>82229 Seefeld, Germany</name><extensions><nmea:speed>0.0</nmea:speed></extensions></trkpt><trkpt lon="11.2331665" lat="48.0593499"><ele>575.0</ele><time>2009-04-19T12:17:44.000Z</time><name>82229 Seefeld, Germany</name><extensions><nmea:speed>0.0</nmea:speed></extensions></trkpt><trkpt lon="11.233244" lat="48.0594351"><ele>575.0</ele><time>2009-04-19T12:17:55.000Z</time><name>82229 Seefeld, Germany</name><extensions><nmea:speed>0.0</nmea:speed></extensions></trkpt><trkpt lon="11.2333594" lat="48.059532"><ele>575.0</ele><time>2009-04-19T12:18:07.000Z</time><name>82229 Seefeld, Germany</name><extensions><nmea:speed>0.0</nmea:speed></extensions></trkpt><trkpt lon="11.2335094" lat="48.0596336"><ele>580.0</ele><time>2009-04-19T12:18:22.000Z</time><name>82229 Seefeld, Germany</name><extensions><nmea:speed>0.0</nmea:speed></extensions></trkpt><trkpt lon="11.2336393" lat="48.0597243"><ele>580.0</ele><time>2009-04-19T12:18:34.000Z</time><name>82229 Seefeld, Germany</name><extensions><nmea:speed>0.0</nmea:speed></extensions></trkpt><trkpt lon="11.23381" lat="48.0598568"><ele>576.0</ele><time>2009-04-19T12:18:52.000Z</time><name>82229 Seefeld, Germany</name><extensions><nmea:speed>0.0</nmea:speed></extensions></trkpt><trkpt lon="11.233959" lat="48.0599798"><ele>576.0</ele><time>2009-04-19T12:19:15.000Z</time><name>Dellinger Weg, 82229 Seefeld, Germany</name><extensions><nmea:speed>0.0</nmea:speed></extensions></trkpt><trkpt lon="11.2340488" lat="48.0600505"><ele>576.0</ele><time>2009-04-19T12:19:25.000Z</time><name>Dellinger Weg, 82229 Seefeld, Germany</name><extensions><nmea:speed>0.0</nmea:speed></extensions></trkpt><trkpt lon="11.2341844" lat="48.0601349"><ele>576.0</ele><time>2009-04-19T12:19:38.000Z</time><name>Dellinger Weg, 82229 Seefeld, Germany</name><extensions><nmea:speed>0.0</nmea:speed></extensions></trkpt><trkpt lon="11.2342878" lat="48.0602147"><ele>576.0</ele><time>2009-04-19T12:19:51.000Z</time><name>Dellinger Weg, 82229 Seefeld, Germany</name><extensions><nmea:speed>0.0</nmea:speed></extensions></trkpt><trkpt lon="11.2343851" lat="48.0603057"><ele>576.0</ele><time>2009-04-19T12:20:06.000Z</time><name>Dellinger Weg, 82229 Seefeld, Germany</name><extensions><nmea:speed>0.0</nmea:speed></extensions></trkpt><trkpt lon="11.2345402" lat="48.0603954"><ele>576.0</ele><time>2009-04-19T12:20:30.000Z</time><name>Dellinger Weg, 82229 Seefeld, Germany</name><extensions><nmea:speed>0.0</nmea:speed></extensions></trkpt><trkpt lon="11.2347341" lat="48.0604946"><ele>589.0</ele><time>2009-04-19T12:20:51.000Z</time><name>Dellinger Weg, 82229 Seefeld, Germany</name><extensions><nmea:speed>0.0</nmea:speed></extensions></trkpt><trkpt lon="11.2349313" lat="48.0605442"><ele>589.0</ele><time>2009-04-19T12:21:14.000Z</time><name>Dellinger Weg, 82229 Seefeld, Germany</name><extensions><nmea:speed>0.0</nmea:speed></extensions></trkpt><trkpt lon="11.2351085" lat="48.060567"><ele>589.0</ele><time>2009-04-19T12:21:51.000Z</time><name>Dellinger Weg, 82229 Seefeld, Germany</name><extensions><nmea:speed>0.0</nmea:speed></extensions></trkpt><trkpt lon="11.235266" lat="48.0604774"><ele>589.0</ele><time>2009-04-19T12:22:10.000Z</time><name>Dellinger Weg, 82229 Seefeld, Germany</name><extensions><nmea:speed>0.0</nmea:speed></extensions></trkpt><trkpt lon="11.2353925" lat="48.0603406"><ele>580.0</ele><time>2009-04-19T12:22:26.000Z</time><name>Dellinger Weg, 82229 Seefeld, Germany</name><extensions><nmea:speed>0.0</nmea:speed></extensions></trkpt><trkpt lon="11.2355146" lat="48.0601965"><ele>583.0</ele><time>2009-04-19T12:22:42.000Z</time><name>Dellinger Weg, 82229 Seefeld, Germany</name><extensions><nmea:speed>0.0</nmea:speed></extensions></trkpt><trkpt lon="11.2356535" lat="48.0600691"><ele>583.0</ele><time>2009-04-19T12:22:55.000Z</time><name>Dellinger Weg, 82229 Seefeld, Germany</name><extensions><nmea:speed>0.0</nmea:speed></extensions></trkpt><trkpt lon="11.235719" lat="48.0599842"><ele>583.0</ele><time>2009-04-19T12:23:06.000Z</time><name>Dellinger Weg, 82229 Seefeld, Germany</name><extensions><nmea:speed>0.0</nmea:speed></extensions></trkpt><trkpt lon="11.2358871" lat="48.0599113"><ele>583.0</ele><time>2009-04-19T12:23:20.000Z</time><name>Dellinger Weg, 82229 Seefeld, Germany</name><extensions><nmea:speed>0.0</nmea:speed></extensions></trkpt><trkpt lon="11.2361287" lat="48.0599008"><ele>583.0</ele><time>2009-04-19T12:23:59.000Z</time><name>St2068, 82229 Seefeld, Germany</name><extensions><nmea:speed>0.0</nmea:speed></extensions></trkpt><trkpt lon="11.2363013" lat="48.0598943"><ele>584.0</ele><time>2009-04-19T12:24:09.000Z</time><name>St2068, 82229 Seefeld, Germany</name><extensions><nmea:speed>0.0</nmea:speed></extensions></trkpt><trkpt lon="11.2364817" lat="48.059905"><ele>584.0</ele><time>2009-04-19T12:24:21.000Z</time><name>St2068, 82229 Seefeld, Germany</name><extensions><nmea:speed>0.0</nmea:speed></extensions></trkpt><trkpt lon="11.2366061" lat="48.0599577"><ele>584.0</ele><time>2009-04-19T12:24:31.000Z</time><name>St2068, 82229 Seefeld, Germany</name><extensions><nmea:speed>0.0</nmea:speed></extensions></trkpt><trkpt lon="11.2368348" lat="48.0598236"><ele>584.0</ele><time>2009-04-19T12:24:42.000Z</time><name>St2068, 82229 Seefeld, Germany</name><extensions><nmea:speed>0.0</nmea:speed></extensions></trkpt><trkpt lon="11.2370418" lat="48.059889"><ele>584.0</ele><time>2009-04-19T12:24:56.000Z</time><name>St2068, 82229 Seefeld, Germany</name><extensions><nmea:speed>0.0</nmea:speed></extensions></trkpt><trkpt lon="11.237202" lat="48.0599311"><ele>585.0</ele><time>2009-04-19T12:25:09.000Z</time><name>St2068, 82229 Seefeld, Germany</name><extensions><nmea:speed>0.0</nmea:speed></extensions></trkpt><trkpt lon="11.2373878" lat="48.0599616"><ele>585.0</ele><time>2009-04-19T12:25:22.000Z</time><name>St2068, 82229 Seefeld, Germany</name><extensions><nmea:speed>0.0</nmea:speed></extensions></trkpt><trkpt lon="11.2375166" lat="48.0597853"><ele>585.0</ele><time>2009-04-19T12:25:42.000Z</time><name>St2068, 82229 Seefeld, Germany</name><extensions><nmea:speed>0.0</nmea:speed></extensions></trkpt><trkpt lon="11.2375389" lat="48.0596958"><ele>585.0</ele><time>2009-04-19T12:25:49.000Z</time><name>St2068, 82229 Seefeld, Germany</name><extensions><nmea:speed>0.0</nmea:speed></extensions></trkpt><trkpt lon="11.2375456" lat="48.0599428"><ele>585.0</ele><time>2009-04-19T12:26:25.000Z</time><name>St2068, 82229 Seefeld, Germany</name><extensions><nmea:speed>0.0</nmea:speed></extensions></trkpt><trkpt lon="11.2376099" lat="48.0600382"><ele>585.0</ele><time>2009-04-19T12:26:35.000Z</time><name>St2068, 82229 Seefeld, Germany</name><extensions><nmea:speed>0.0</nmea:speed></extensions></trkpt><trkpt lon="11.2377305" lat="48.0601097"><ele>585.0</ele><time>2009-04-19T12:26:45.000Z</time><name>Mühlstraße 2, 82229 Seefeld, Germany</name><extensions><nmea:speed>0.0</nmea:speed></extensions></trkpt><trkpt lon="11.2379147" lat="48.0602062"><ele>585.0</ele><time>2009-04-19T12:26:55.000Z</time><name>Mühlstraße 2, 82229 Seefeld, Germany</name><extensions><nmea:speed>0.0</nmea:speed></extensions></trkpt><trkpt lon="11.2380382" lat="48.0603231"><ele>587.0</ele><time>2009-04-19T12:27:05.000Z</time><name>Mühlstraße 2, 82229 Seefeld, Germany</name><extensions><nmea:speed>0.0</nmea:speed></extensions></trkpt><trkpt lon="11.2381667" lat="48.060491"><ele>590.0</ele><time>2009-04-19T12:27:17.000Z</time><name>Mühlstraße 2, 82229 Seefeld, Germany</name><extensions><nmea:speed>0.0</nmea:speed></extensions></trkpt><trkpt lon="11.2382173" lat="48.0606526"><ele>590.0</ele><time>2009-04-19T12:27:28.000Z</time><name>Mühlstraße 2, 82229 Seefeld, Germany</name><extensions><nmea:speed>0.0</nmea:speed></extensions></trkpt><trkpt lon="11.2380847" lat="48.0608099"><ele>590.0</ele><time>2009-04-19T12:27:41.000Z</time><name>St2068, 82229 Seefeld, Germany</name><extensions><nmea:speed>0.0</nmea:speed></extensions></trkpt><trkpt lon="11.2379925" lat="48.0608869"><ele>590.0</ele><time>2009-04-19T12:27:52.000Z</time><name>St2068, 82229 Seefeld, Germany</name><extensions><nmea:speed>0.0</nmea:speed></extensions></trkpt><trkpt lon="11.2382844" lat="48.0605528"><ele>590.0</ele><time>2009-04-19T12:28:42.000Z</time><name>Mühlstraße 2, 82229 Seefeld, Germany</name><extensions><nmea:speed>0.0</nmea:speed></extensions></trkpt><trkpt lon="11.2384341" lat="48.0602758"><ele>587.0</ele><time>2009-04-19T12:29:02.000Z</time><name>Mühlstraße 2, 82229 Seefeld, Germany</name><extensions><nmea:speed>0.0</nmea:speed></extensions></trkpt><trkpt lon="11.23855" lat="48.0600872"><ele>587.0</ele><time>2009-04-19T12:29:15.000Z</time><name>Mühlstraße 2, 82229 Seefeld, Germany</name><extensions><nmea:speed>0.0</nmea:speed></extensions></trkpt><trkpt lon="11.2386138" lat="48.0598932"><ele>587.0</ele><time>2009-04-19T12:29:29.000Z</time><name>Mühlstraße 2, 82229 Seefeld, Germany</name><extensions><nmea:speed>0.0</nmea:speed></extensions></trkpt><trkpt lon="11.238636" lat="48.0597912"><ele>587.0</ele><time>2009-04-19T12:29:38.000Z</time><name>Mühlstraße, 82229 Seefeld, Germany</name><extensions><nmea:speed>0.0</nmea:speed></extensions></trkpt><trkpt lon="11.2386735" lat="48.0596366"><ele>587.0</ele><time>2009-04-19T12:30:02.000Z</time><name>Mühlstraße, 82229 Seefeld, Germany</name><extensions><nmea:speed>0.0</nmea:speed></extensions></trkpt><trkpt lon="11.2388164" lat="48.0596128"><ele>587.0</ele><time>2009-04-19T12:30:22.000Z</time><name>Ettenhofener Straße, 82229 Seefeld, Germany</name><extensions><nmea:speed>0.0</nmea:speed></extensions></trkpt><trkpt lon="11.2389565" lat="48.0596154"><ele>587.0</ele><time>2009-04-19T12:30:33.000Z</time><name>Ettenhofener Straße, 82229 Seefeld, Germany</name><extensions><nmea:speed>0.0</nmea:speed></extensions></trkpt><trkpt lon="11.2391635" lat="48.0596303"><ele>587.0</ele><time>2009-04-19T12:30:46.000Z</time><name>Ettenhofener Straße, 82229 Seefeld, Germany</name><extensions><nmea:speed>0.0</nmea:speed></extensions></trkpt><trkpt lon="11.2393577" lat="48.0596219"><ele>587.0</ele><time>2009-04-19T12:31:02.000Z</time><name>Ettenhofener Straße, 82229 Seefeld, Germany</name><extensions><nmea:speed>0.0</nmea:speed></extensions></trkpt><trkpt lon="11.2394864" lat="48.0596717"><ele>587.0</ele><time>2009-04-19T12:31:55.000Z</time><name>Ettenhofener Straße, 82229 Seefeld, Germany</name><extensions><nmea:speed>0.0</nmea:speed></extensions></trkpt><trkpt lon="11.2397873" lat="48.0596451"><ele>584.0</ele><time>2009-04-19T12:32:27.000Z</time><name>Ettenhofener Straße, 82229 Seefeld, Germany</name><extensions><nmea:speed>0.0</nmea:speed></extensions></trkpt><trkpt lon="11.2399324" lat="48.0596419"><ele>584.0</ele><time>2009-04-19T12:32:41.000Z</time><name>Ettenhofener Straße, 82229 Seefeld, Germany</name><extensions><nmea:speed>0.0</nmea:speed></extensions></trkpt><trkpt lon="11.2401508" lat="48.0596584"><ele>584.0</ele><time>2009-04-19T12:32:58.000Z</time><name>Ettenhofener Straße, 82229 Seefeld, Germany</name><extensions><nmea:speed>0.0</nmea:speed></extensions></trkpt><trkpt lon="11.2405212" lat="48.0596629"><ele>580.0</ele><time>2009-04-19T12:33:17.000Z</time><name>Ettenhofener Straße, 82229 Seefeld, Germany</name><extensions><nmea:speed>0.0</nmea:speed></extensions></trkpt><trkpt lon="11.2407753" lat="48.0596097"><ele>580.0</ele><time>2009-04-19T12:33:35.000Z</time><name>Ettenhofener Straße, 82229 Seefeld, Germany</name><extensions><nmea:speed>0.0</nmea:speed></extensions></trkpt><trkpt lon="11.2409492" lat="48.0596352"><ele>580.0</ele><time>2009-04-19T12:33:55.000Z</time><name>Ettenhofener Straße, 82229 Seefeld, Germany</name><extensions><nmea:speed>0.0</nmea:speed></extensions></trkpt><trkpt lon="11.2411593" lat="48.0596191"><ele>580.0</ele><time>2009-04-19T12:34:06.000Z</time><name>Ettenhofener Straße, 82229 Seefeld, Germany</name><extensions><nmea:speed>0.0</nmea:speed></extensions></trkpt><trkpt lon="11.2413169" lat="48.0596319"><ele>573.0</ele><time>2009-04-19T12:34:16.000Z</time><name>Ettenhofener Straße, 82229 Seefeld, Germany</name><extensions><nmea:speed>0.0</nmea:speed></extensions></trkpt><trkpt lon="11.2414709" lat="48.0596345"><ele>573.0</ele><time>2009-04-19T12:34:28.000Z</time><name>Ettenhofener Straße, 82229 Seefeld, Germany</name><extensions><nmea:speed>0.0</nmea:speed></extensions></trkpt><trkpt lon="11.2416536" lat="48.0596091"><ele>573.0</ele><time>2009-04-19T12:34:37.000Z</time><name>Ettenhofener Straße, 82229 Seefeld, Germany</name><extensions><nmea:speed>0.0</nmea:speed></extensions></trkpt><trkpt lon="11.2418561" lat="48.059617"><ele>573.0</ele><time>2009-04-19T12:34:49.000Z</time><name>Ettenhofener Straße, 82229 Seefeld, Germany</name><extensions><nmea:speed>0.0</nmea:speed></extensions></trkpt><trkpt lon="11.2420078" lat="48.0597921"><ele>573.0</ele><time>2009-04-19T12:35:16.000Z</time><name>Ettenhofener Straße, 82229 Seefeld, Germany</name><extensions><nmea:speed>0.0</nmea:speed></extensions></trkpt><trkpt lon="11.2420877" lat="48.0598883"><ele>569.0</ele><time>2009-04-19T12:35:28.000Z</time><name>Ettenhofener Straße, 82229 Seefeld, Germany</name><extensions><nmea:speed>0.0</nmea:speed></extensions></trkpt><trkpt lon="11.2421646" lat="48.0599937"><ele>569.0</ele><time>2009-04-19T12:35:42.000Z</time><name>Ettenhofener Straße, 82229 Seefeld, Germany</name><extensions><nmea:speed>0.0</nmea:speed></extensions></trkpt><trkpt lon="11.2422237" lat="48.0600805"><ele>569.0</ele><time>2009-04-19T12:35:52.000Z</time><name>Ettenhofener Straße, 82229 Seefeld, Germany</name><extensions><nmea:speed>0.0</nmea:speed></extensions></trkpt><trkpt lon="11.2423474" lat="48.0602442"><ele>569.0</ele><time>2009-04-19T12:36:09.000Z</time><name>82229 Seefeld, Germany</name><extensions><nmea:speed>0.0</nmea:speed></extensions></trkpt><trkpt lon="11.2424316" lat="48.0603812"><ele>569.0</ele><time>2009-04-19T12:36:23.000Z</time><name>82229 Seefeld, Germany</name><extensions><nmea:speed>0.0</nmea:speed></extensions></trkpt><trkpt lon="11.2425707" lat="48.060555"><ele>574.0</ele><time>2009-04-19T12:36:44.000Z</time><name>82229 Seefeld, Germany</name><extensions><nmea:speed>0.0</nmea:speed></extensions></trkpt><trkpt lon="11.2426155" lat="48.0606617"><ele>574.0</ele><time>2009-04-19T12:36:54.000Z</time><name>82229 Seefeld, Germany</name><extensions><nmea:speed>0.0</nmea:speed></extensions></trkpt><trkpt lon="11.2426614" lat="48.0607764"><ele>574.0</ele><time>2009-04-19T12:37:05.000Z</time><name>82229 Seefeld, Germany</name><extensions><nmea:speed>0.0</nmea:speed></extensions></trkpt><trkpt lon="11.2427563" lat="48.0608767"><ele>574.0</ele><time>2009-04-19T12:37:21.000Z</time><name>82229 Seefeld, Germany</name><extensions><nmea:speed>0.0</nmea:speed></extensions></trkpt><trkpt lon="11.2428178" lat="48.0609589"><ele>574.0</ele><time>2009-04-19T12:37:31.000Z</time><name>82229 Seefeld, Germany</name><extensions><nmea:speed>0.0</nmea:speed></extensions></trkpt><trkpt lon="11.2429604" lat="48.0610565"><ele>573.0</ele><time>2009-04-19T12:37:43.000Z</time><name>82229 Seefeld, Germany</name><extensions><nmea:speed>0.0</nmea:speed></extensions></trkpt><trkpt lon="11.2431658" lat="48.0610717"><ele>573.0</ele><time>2009-04-19T12:37:57.000Z</time><name>82229 Seefeld, Germany</name><extensions><nmea:speed>0.0</nmea:speed></extensions></trkpt><trkpt lon="11.2434889" lat="48.0611724"><ele>573.0</ele><time>2009-04-19T12:38:19.000Z</time><name>82229 Seefeld, Germany</name><extensions><nmea:speed>0.0</nmea:speed></extensions></trkpt><trkpt lon="11.24361" lat="48.0612475"><ele>573.0</ele><time>2009-04-19T12:38:31.000Z</time><name>82229 Seefeld, Germany</name><extensions><nmea:speed>0.0</nmea:speed></extensions></trkpt><trkpt lon="11.2436782" lat="48.0613429"><ele>574.0</ele><time>2009-04-19T12:38:42.000Z</time><name>82229 Seefeld, Germany</name><extensions><nmea:speed>0.0</nmea:speed></extensions></trkpt><trkpt lon="11.2437771" lat="48.0615089"><ele>573.0</ele><time>2009-04-19T12:39:01.000Z</time><name>82229 Seefeld, Germany</name><extensions><nmea:speed>0.0</nmea:speed></extensions></trkpt><trkpt lon="11.2438326" lat="48.0616246"><ele>573.0</ele><time>2009-04-19T12:39:13.000Z</time><name>82229 Seefeld, Germany</name><extensions><nmea:speed>0.0</nmea:speed></extensions></trkpt><trkpt lon="11.2438335" lat="48.0617259"><ele>573.0</ele><time>2009-04-19T12:39:23.000Z</time><name>82229 Seefeld, Germany</name><extensions><nmea:speed>0.0</nmea:speed></extensions></trkpt><trkpt lon="11.2438204" lat="48.0618279"><ele>573.0</ele><time>2009-04-19T12:39:33.000Z</time><name>82229 Seefeld, Germany</name><extensions><nmea:speed>0.0</nmea:speed></extensions></trkpt><trkpt lon="11.2438194" lat="48.0619188"><ele>573.0</ele><time>2009-04-19T12:39:45.000Z</time><name>82229 Seefeld, Germany</name><extensions><nmea:speed>0.0</nmea:speed></extensions></trkpt><trkpt lon="11.243823" lat="48.0620526"><ele>573.0</ele><time>2009-04-19T12:39:59.000Z</time><name>82229 Seefeld, Germany</name><extensions><nmea:speed>0.0</nmea:speed></extensions></trkpt><trkpt lon="11.2438538" lat="48.062169"><ele>574.0</ele><time>2009-04-19T12:40:10.000Z</time><name>82229 Seefeld, Germany</name><extensions><nmea:speed>0.0</nmea:speed></extensions></trkpt><trkpt lon="11.2438925" lat="48.0623089"><ele>574.0</ele><time>2009-04-19T12:40:24.000Z</time><name>Dellinger Weg 12, 82229 Seefeld, Germany</name><extensions><nmea:speed>0.0</nmea:speed></extensions></trkpt><trkpt lon="11.2439753" lat="48.0624104"><ele>574.0</ele><time>2009-04-19T12:40:37.000Z</time><name>Dellinger Weg 12, 82229 Seefeld, Germany</name><extensions><nmea:speed>0.0</nmea:speed></extensions></trkpt><trkpt lon="11.2440926" lat="48.0624953"><ele>574.0</ele><time>2009-04-19T12:40:49.000Z</time><name>Dellinger Weg 12, 82229 Seefeld, Germany</name><extensions><nmea:speed>0.0</nmea:speed></extensions></trkpt><trkpt lon="11.2442159" lat="48.0625965"><ele>574.0</ele><time>2009-04-19T12:41:01.000Z</time><name>82229 Seefeld, Germany</name><extensions><nmea:speed>0.0</nmea:speed></extensions></trkpt><trkpt lon="11.2442923" lat="48.0626743"><ele>574.0</ele><time>2009-04-19T12:42:01.000Z</time><name>82229 Seefeld, Germany</name><extensions><nmea:speed>0.0</nmea:speed></extensions></trkpt><trkpt lon="11.2443653" lat="48.0628201"><ele>574.0</ele><time>2009-04-19T12:42:17.000Z</time><name>Dellinger Weg 12, 82229 Seefeld, Germany</name><extensions><nmea:speed>0.0</nmea:speed></extensions></trkpt><trkpt lon="11.2444413" lat="48.0629208"><ele>585.0</ele><time>2009-04-19T12:42:29.000Z</time><name>Dellinger Weg 12, 82229 Seefeld, Germany</name><extensions><nmea:speed>0.0</nmea:speed></extensions></trkpt><trkpt lon="11.2445228" lat="48.0630448"><ele>585.0</ele><time>2009-04-19T12:43:09.000Z</time><name>Dellinger Weg 12, 82229 Seefeld, Germany</name><extensions><nmea:speed>0.0</nmea:speed></extensions></trkpt><trkpt lon="11.244556" lat="48.0631523"><ele>585.0</ele><time>2009-04-19T12:43:21.000Z</time><name>Dellinger Weg 12, 82229 Seefeld, Germany</name><extensions><nmea:speed>0.0</nmea:speed></extensions></trkpt><trkpt lon="11.2445626" lat="48.063249"><ele>585.0</ele><time>2009-04-19T12:43:32.000Z</time><name>Dellinger Weg 12, 82229 Seefeld, Germany</name><extensions><nmea:speed>0.0</nmea:speed></extensions></trkpt><trkpt lon="11.244461" lat="48.0634537"><ele>585.0</ele><time>2009-04-19T12:43:54.000Z</time><name>Dellinger Weg 12, 82229 Seefeld, Germany</name><extensions><nmea:speed>0.0</nmea:speed></extensions></trkpt><trkpt lon="11.2446101" lat="48.0634719"><ele>575.0</ele><time>2009-04-19T12:44:36.000Z</time><name>Dellinger Weg 12, 82229 Seefeld, Germany</name><extensions><nmea:speed>0.0</nmea:speed></extensions></trkpt><trkpt lon="11.244538" lat="48.063574"><ele>585.0</ele><time>2009-04-19T12:45:01.000Z</time><name>Dellinger Weg 12, 82229 Seefeld, Germany</name><extensions><nmea:speed>0.0</nmea:speed></extensions></trkpt><trkpt lon="11.2444772" lat="48.0637372"><ele>585.0</ele><time>2009-04-19T12:45:12.000Z</time><name>Dellinger Weg 12, 82229 Seefeld, Germany</name><extensions><nmea:speed>0.0</nmea:speed></extensions></trkpt><trkpt lon="11.2443936" lat="48.063887"><ele>594.0</ele><time>2009-04-19T12:45:23.000Z</time><name>Dellinger Weg 12, 82229 Seefeld, Germany</name><extensions><nmea:speed>0.0</nmea:speed></extensions></trkpt><trkpt lon="11.2443446" lat="48.0640075"><ele>594.0</ele><time>2009-04-19T12:45:32.000Z</time><name>Dellinger Weg 12, 82229 Seefeld, Germany</name><extensions><nmea:speed>0.0</nmea:speed></extensions></trkpt><trkpt lon="11.2443547" lat="48.0642095"><ele>594.0</ele><time>2009-04-19T12:45:57.000Z</time><name>Dellinger Weg 12, 82229 Seefeld, Germany</name><extensions><nmea:speed>0.0</nmea:speed></extensions></trkpt><trkpt lon="11.2442923" lat="48.0643274"><ele>594.0</ele><time>2009-04-19T12:46:07.000Z</time><name>Dellinger Weg 12, 82229 Seefeld, Germany</name><extensions><nmea:speed>0.0</nmea:speed></extensions></trkpt><trkpt lon="11.2443121" lat="48.0644187"><ele>594.0</ele><time>2009-04-19T12:46:15.000Z</time><name>Dellinger Weg 12, 82229 Seefeld, Germany</name><extensions><nmea:speed>0.0</nmea:speed></extensions></trkpt><trkpt lon="11.2443799" lat="48.0645092"><ele>594.0</ele><time>2009-04-19T12:46:27.000Z</time><name>Dellinger Weg 12, 82229 Seefeld, Germany</name><extensions><nmea:speed>0.0</nmea:speed></extensions></trkpt><trkpt lon="11.2444829" lat="48.0645919"><ele>601.0</ele><time>2009-04-19T12:46:41.000Z</time><name>Dellinger Weg 12, 82229 Seefeld, Germany</name><extensions><nmea:speed>0.0</nmea:speed></extensions></trkpt><trkpt lon="11.2445817" lat="48.0646606"><ele>601.0</ele><time>2009-04-19T12:46:53.000Z</time><name>Dellinger Weg 12, 82229 Seefeld, Germany</name><extensions><nmea:speed>0.0</nmea:speed></extensions></trkpt><trkpt lon="11.244711" lat="48.0648062"><ele>587.0</ele><time>2009-04-19T12:47:18.000Z</time><name>Dellinger Weg 12, 82229 Seefeld, Germany</name><extensions><nmea:speed>0.0</nmea:speed></extensions></trkpt><trkpt lon="11.2448222" lat="48.0649307"><ele>587.0</ele><time>2009-04-19T12:47:32.000Z</time><name>Dellinger Weg 12, 82229 Seefeld, Germany</name><extensions><nmea:speed>0.0</nmea:speed></extensions></trkpt><trkpt lon="11.2449196" lat="48.0650228"><ele>587.0</ele><time>2009-04-19T12:47:48.000Z</time><name>Dellinger Weg 12, 82229 Seefeld, Germany</name><extensions><nmea:speed>0.0</nmea:speed></extensions></trkpt><trkpt lon="11.2450888" lat="48.0651254"><ele>587.0</ele><time>2009-04-19T12:48:02.000Z</time><name>Dellinger Weg 12, 82229 Seefeld, Germany</name><extensions><nmea:speed>0.0</nmea:speed></extensions></trkpt><trkpt lon="11.2451717" lat="48.0652555"><ele>587.0</ele><time>2009-04-19T12:48:14.000Z</time><name>Dellinger Weg 12, 82229 Seefeld, Germany</name><extensions><nmea:speed>0.0</nmea:speed></extensions></trkpt><trkpt lon="11.2451605" lat="48.0653544"><ele>587.0</ele><time>2009-04-19T12:48:29.000Z</time><name>Dellinger Weg 12, 82229 Seefeld, Germany</name><extensions><nmea:speed>0.0</nmea:speed></extensions></trkpt><trkpt lon="11.245075" lat="48.0655245"><ele>597.0</ele><time>2009-04-19T12:48:44.000Z</time><name>Dellinger Weg, 82234 Weßling, Germany</name><extensions><nmea:speed>0.0</nmea:speed></extensions></trkpt><trkpt lon="11.2450134" lat="48.065635"><ele>597.0</ele><time>2009-04-19T12:48:58.000Z</time><name>Dellinger Weg, 82234 Weßling, Germany</name><extensions><nmea:speed>0.0</nmea:speed></extensions></trkpt><trkpt lon="11.2449781" lat="48.0658507"><ele>597.0</ele><time>2009-04-19T12:49:22.000Z</time><name>Dellinger Weg, 82234 Weßling, Germany</name><extensions><nmea:speed>0.0</nmea:speed></extensions></trkpt><trkpt lon="11.2449512" lat="48.0659515"><ele>597.0</ele><time>2009-04-19T12:49:35.000Z</time><name>Dellinger Weg, 82234 Weßling, Germany</name><extensions><nmea:speed>0.0</nmea:speed></extensions></trkpt><trkpt lon="11.2449666" lat="48.0660827"><ele>597.0</ele><time>2009-04-19T12:49:46.000Z</time><name>Dellinger Weg, 82234 Weßling, Germany</name><extensions><nmea:speed>0.0</nmea:speed></extensions></trkpt><trkpt lon="11.2449192" lat="48.0662077"><ele>597.0</ele><time>2009-04-19T12:49:59.000Z</time><name>Dellinger Weg, 82234 Weßling, Germany</name><extensions><nmea:speed>0.0</nmea:speed></extensions></trkpt><trkpt lon="11.244874" lat="48.0663024"><ele>604.0</ele><time>2009-04-19T12:50:08.000Z</time><name>Dellinger Weg, 82234 Weßling, Germany</name><extensions><nmea:speed>0.0</nmea:speed></extensions></trkpt><trkpt lon="11.2449047" lat="48.0664826"><ele>604.0</ele><time>2009-04-19T12:50:30.000Z</time><name>Dellinger Weg, 82234 Weßling, Germany</name><extensions><nmea:speed>0.0</nmea:speed></extensions></trkpt><trkpt lon="11.2450108" lat="48.066606"><ele>604.0</ele><time>2009-04-19T12:50:48.000Z</time><name>Dellinger Weg, 82234 Weßling, Germany</name><extensions><nmea:speed>0.0</nmea:speed></extensions></trkpt><trkpt lon="11.245131" lat="48.0666602"><ele>604.0</ele><time>2009-04-19T12:50:59.000Z</time><name>Dellinger Weg, 82234 Weßling, Germany</name><extensions><nmea:speed>0.0</nmea:speed></extensions></trkpt><trkpt lon="11.2452253" lat="48.0667498"><ele>604.0</ele><time>2009-04-19T12:51:13.000Z</time><name>Dellinger Weg, 82234 Weßling, Germany</name><extensions><nmea:speed>0.0</nmea:speed></extensions></trkpt><trkpt lon="11.2453211" lat="48.0668401"><ele>604.0</ele><time>2009-04-19T12:51:24.000Z</time><name>Dellinger Weg, 82234 Weßling, Germany</name><extensions><nmea:speed>0.0</nmea:speed></extensions></trkpt><trkpt lon="11.2453405" lat="48.0670256"><ele>604.0</ele><time>2009-04-19T12:51:44.000Z</time><name>Dellinger Weg 9, 82234 Weßling, Germany</name><extensions><nmea:speed>0.0</nmea:speed></extensions></trkpt><trkpt lon="11.2453719" lat="48.0671296"><ele>614.0</ele><time>2009-04-19T12:51:55.000Z</time><name>Dellinger Weg 7, 82234 Weßling, Germany</name><extensions><nmea:speed>0.0</nmea:speed></extensions></trkpt><trkpt lon="11.245439" lat="48.0672244"><ele>602.0</ele><time>2009-04-19T12:52:04.000Z</time><name>Dellinger Weg 7, 82234 Weßling, Germany</name><extensions><nmea:speed>0.0</nmea:speed></extensions></trkpt><trkpt lon="11.2455147" lat="48.0673123"><ele>602.0</ele><time>2009-04-19T12:52:16.000Z</time><name>Dellinger Weg 7, 82234 Weßling, Germany</name><extensions><nmea:speed>0.0</nmea:speed></extensions></trkpt><trkpt lon="11.2456008" lat="48.0674033"><ele>602.0</ele><time>2009-04-19T12:52:31.000Z</time><name>Dellinger Weg 7, 82234 Weßling, Germany</name><extensions><nmea:speed>0.0</nmea:speed></extensions></trkpt><trkpt lon="11.2458431" lat="48.0675632"><ele>602.0</ele><time>2009-04-19T12:53:11.000Z</time><name>Dellinger Weg 7, 82234 Weßling, Germany</name><extensions><nmea:speed>0.0</nmea:speed></extensions></trkpt><trkpt lon="11.2459172" lat="48.0677108"><ele>602.0</ele><time>2009-04-19T12:53:47.000Z</time><name>Dellinger Weg 7, 82234 Weßling, Germany</name><extensions><nmea:speed>0.0</nmea:speed></extensions></trkpt><trkpt lon="11.2456896" lat="48.0672263"><ele>602.0</ele><time>2009-04-19T12:55:15.000Z</time><name>Dellinger Weg 7, 82234 Weßling, Germany</name><extensions><nmea:speed>0.0</nmea:speed></extensions></trkpt><trkpt lon="11.2460297" lat="48.0679346"><ele>615.0</ele><time>2009-04-19T12:56:55.000Z</time><name>Dellinger Weg 8, 82234 Weßling, Germany</name><extensions><nmea:speed>0.0</nmea:speed></extensions></trkpt><trkpt lon="11.2461232" lat="48.0680162"><ele>615.0</ele><time>2009-04-19T12:57:03.000Z</time><name>Dellinger Weg 8, 82234 Weßling, Germany</name><extensions><nmea:speed>0.0</nmea:speed></extensions></trkpt><trkpt lon="11.2462189" lat="48.0680951"><ele>615.0</ele><time>2009-04-19T12:57:15.000Z</time><name>Dellinger Weg 8, 82234 Weßling, Germany</name><extensions><nmea:speed>0.0</nmea:speed></extensions></trkpt><trkpt lon="11.2463732" lat="48.0681486"><ele>603.0</ele><time>2009-04-19T12:57:23.000Z</time><name>Dellinger Weg 8, 82234 Weßling, Germany</name><extensions><nmea:speed>0.0</nmea:speed></extensions></trkpt><trkpt lon="11.2465648" lat="48.0682599"><ele>603.0</ele><time>2009-04-19T12:57:36.000Z</time><name>Dellinger Weg 8, 82234 Weßling, Germany</name><extensions><nmea:speed>0.0</nmea:speed></extensions></trkpt><trkpt lon="11.2466673" lat="48.0683209"><ele>603.0</ele><time>2009-04-19T12:57:43.000Z</time><name>Dellinger Weg 8, 82234 Weßling, Germany</name><extensions><nmea:speed>0.0</nmea:speed></extensions></trkpt><trkpt lon="11.2468155" lat="48.0684583"><ele>603.0</ele><time>2009-04-19T12:57:55.000Z</time><name>Dellinger Weg 5, 82234 Weßling, Germany</name><extensions><nmea:speed>0.0</nmea:speed></extensions></trkpt><trkpt lon="11.2469765" lat="48.0685112"><ele>603.0</ele><time>2009-04-19T12:58:18.000Z</time><name>Dellinger Weg 5, 82234 Weßling, Germany</name><extensions><nmea:speed>0.0</nmea:speed></extensions></trkpt><trkpt lon="11.2472051" lat="48.0687554"><ele>604.0</ele><time>2009-04-19T12:58:39.000Z</time><name>Dellinger Weg 6, 82234 Weßling, Germany</name><extensions><nmea:speed>0.0</nmea:speed></extensions></trkpt><trkpt lon="11.2472745" lat="48.0689346"><ele>604.0</ele><time>2009-04-19T12:58:51.000Z</time><name>Dellinger Weg 6, 82234 Weßling, Germany</name><extensions><nmea:speed>0.0</nmea:speed></extensions></trkpt><trkpt lon="11.2473218" lat="48.069068"><ele>604.0</ele><time>2009-04-19T12:59:01.000Z</time><name>Dellinger Weg 6, 82234 Weßling, Germany</name><extensions><nmea:speed>0.0</nmea:speed></extensions></trkpt><trkpt lon="11.2473597" lat="48.0692668"><ele>604.0</ele><time>2009-04-19T12:59:13.000Z</time><name>Dellinger Weg 6, 82234 Weßling, Germany</name><extensions><nmea:speed>0.0</nmea:speed></extensions></trkpt><trkpt lon="11.2474021" lat="48.0694475"><ele>604.0</ele><time>2009-04-19T12:59:26.000Z</time><name>Dellinger Weg 6, 82234 Weßling, Germany</name><extensions><nmea:speed>0.0</nmea:speed></extensions></trkpt><trkpt lon="11.2474522" lat="48.0695948"><ele>604.0</ele><time>2009-04-19T12:59:38.000Z</time><name>Dellinger Weg 6, 82234 Weßling, Germany</name><extensions><nmea:speed>0.0</nmea:speed></extensions></trkpt><trkpt lon="11.2474499" lat="48.0697953"><ele>604.0</ele><time>2009-04-19T13:00:08.000Z</time><name>Am Kreuzberg 1-5, 82234 Weßling, Germany</name><extensions><nmea:speed>0.0</nmea:speed></extensions></trkpt><trkpt lon="11.2474195" lat="48.0698934"><ele>604.0</ele><time>2009-04-19T13:00:19.000Z</time><name>Am Kreuzberg 1-5, 82234 Weßling, Germany</name><extensions><nmea:speed>0.0</nmea:speed></extensions></trkpt><trkpt lon="11.2473383" lat="48.069996"><ele>604.0</ele><time>2009-04-19T13:00:29.000Z</time><name>Am Kreuzberg 1-5, 82234 Weßling, Germany</name><extensions><nmea:speed>0.0</nmea:speed></extensions></trkpt><trkpt lon="11.2472843" lat="48.0700924"><ele>604.0</ele><time>2009-04-19T13:00:38.000Z</time><name>Am Kreuzberg 1-5, 82234 Weßling, Germany</name><extensions><nmea:speed>0.0</nmea:speed></extensions></trkpt><trkpt lon="11.2477265" lat="48.0697812"><ele>604.0</ele><time>2009-04-19T13:01:23.000Z</time><name>Am Kreuzberg, 82234 Weßling, Germany</name><extensions><nmea:speed>0.0</nmea:speed></extensions></trkpt><trkpt lon="11.2478668" lat="48.0697693"><ele>604.0</ele><time>2009-04-19T13:01:31.000Z</time><name>Am Kreuzberg, 82234 Weßling, Germany</name><extensions><nmea:speed>0.0</nmea:speed></extensions></trkpt><trkpt lon="11.2481687" lat="48.0697601"><ele>600.0</ele><time>2009-04-19T13:01:44.000Z</time><name>Am Kreuzberg, 82234 Weßling, Germany</name><extensions><nmea:speed>0.0</nmea:speed></extensions></trkpt><trkpt lon="11.2483445" lat="48.0697751"><ele>600.0</ele><time>2009-04-19T13:01:55.000Z</time><name>Am Kreuzberg, 82234 Weßling, Germany</name><extensions><nmea:speed>0.0</nmea:speed></extensions></trkpt><trkpt lon="11.2485396" lat="48.0697533"><ele>600.0</ele><time>2009-04-19T13:02:04.000Z</time><name>Am Kreuzberg, 82234 Weßling, Germany</name><extensions><nmea:speed>0.0</nmea:speed></extensions></trkpt><trkpt lon="11.2488317" lat="48.0697937"><ele>599.0</ele><time>2009-04-19T13:02:18.000Z</time><name>Am Kreuzberg, 82234 Weßling, Germany</name><extensions><nmea:speed>0.0</nmea:speed></extensions></trkpt><trkpt lon="11.2490244" lat="48.06978"><ele>599.0</ele><time>2009-04-19T13:02:26.000Z</time><name>Am Karpfenwinkel 2, 82234 Weßling, Germany</name><extensions><nmea:speed>0.0</nmea:speed></extensions></trkpt><trkpt lon="11.2491398" lat="48.069838"><ele>599.0</ele><time>2009-04-19T13:02:40.000Z</time><name>Am Karpfenwinkel 2, 82234 Weßling, Germany</name><extensions><nmea:speed>0.0</nmea:speed></extensions></trkpt><trkpt lon="11.2492688" lat="48.0699658"><ele>599.0</ele><time>2009-04-19T13:02:50.000Z</time><name>Am Karpfenwinkel 2-8, 82234 Weßling, Germany</name><extensions><nmea:speed>0.0</nmea:speed></extensions></trkpt><trkpt lon="11.2494097" lat="48.0700875"><ele>599.0</ele><time>2009-04-19T13:03:01.000Z</time><name>Am Karpfenwinkel 2-8, 82234 Weßling, Germany</name><extensions><nmea:speed>0.0</nmea:speed></extensions></trkpt><trkpt lon="11.2496486" lat="48.0702019"><ele>600.0</ele><time>2009-04-19T13:03:15.000Z</time><name>Am Karpfenwinkel 1-11, 82234 Weßling, Germany</name><extensions><nmea:speed>0.0</nmea:speed></extensions></trkpt><trkpt lon="11.2499583" lat="48.0702926"><ele>600.0</ele><time>2009-04-19T13:03:29.000Z</time><name>Am Karpfenwinkel 1-11, 82234 Weßling, Germany</name><extensions><nmea:speed>0.0</nmea:speed></extensions></trkpt><trkpt lon="11.2501785" lat="48.0702805"><ele>600.0</ele><time>2009-04-19T13:03:41.000Z</time><name>Am Karpfenwinkel 1-11, 82234 Weßling, Germany</name><extensions><nmea:speed>0.0</nmea:speed></extensions></trkpt><trkpt lon="11.2503494" lat="48.0702463"><ele>600.0</ele><time>2009-04-19T13:03:55.000Z</time><name>Am Karpfenwinkel 1-11, 82234 Weßling, Germany</name><extensions><nmea:speed>0.0</nmea:speed></extensions></trkpt><trkpt lon="11.2505414" lat="48.070201"><ele>602.0</ele><time>2009-04-19T13:04:06.000Z</time><name>Am Karpfenwinkel 1-11, 82234 Weßling, Germany</name><extensions><nmea:speed>0.0</nmea:speed></extensions></trkpt><trkpt lon="11.2507199" lat="48.0701831"><ele>602.0</ele><time>2009-04-19T13:04:18.000Z</time><name>Am Karpfenwinkel 1-11, 82234 Weßling, Germany</name><extensions><nmea:speed>0.0</nmea:speed></extensions></trkpt><trkpt lon="11.2509168" lat="48.0701996"><ele>602.0</ele><time>2009-04-19T13:04:31.000Z</time><name>Am Karpfenwinkel 1-11, 82234 Weßling, Germany</name><extensions><nmea:speed>0.0</nmea:speed></extensions></trkpt><trkpt lon="11.2510632" lat="48.0702328"><ele>602.0</ele><time>2009-04-19T13:04:53.000Z</time><name>Alzheimergaßl 4, 82234 Weßling, Germany</name><extensions><nmea:speed>0.0</nmea:speed></extensions></trkpt><trkpt lon="11.2512099" lat="48.0702673"><ele>602.0</ele><time>2009-04-19T13:05:07.000Z</time><name>Alzheimergaßl 4-10, 82234 Weßling, Germany</name><extensions><nmea:speed>0.0</nmea:speed></extensions></trkpt><trkpt lon="11.2514398" lat="48.070344"><ele>603.0</ele><time>2009-04-19T13:06:08.000Z</time><name>Alzheimergaßl 4-10, 82234 Weßling, Germany</name><extensions><nmea:speed>0.0</nmea:speed></extensions></trkpt><trkpt lon="11.2515361" lat="48.0704848"><ele>601.0</ele><time>2009-04-19T13:06:23.000Z</time><name>Alzheimergaßl 4-10, 82234 Weßling, Germany</name><extensions><nmea:speed>0.0</nmea:speed></extensions></trkpt><trkpt lon="11.2514442" lat="48.0706268"><ele>601.0</ele><time>2009-04-19T13:06:35.000Z</time><name>Alzheimergaßl 4-10, 82234 Weßling, Germany</name><extensions><nmea:speed>0.0</nmea:speed></extensions></trkpt><trkpt lon="11.2513209" lat="48.0707596"><ele>601.0</ele><time>2009-04-19T13:06:48.000Z</time><name>Alzheimergaßl 4-10, 82234 Weßling, Germany</name><extensions><nmea:speed>0.0</nmea:speed></extensions></trkpt><trkpt lon="11.2511807" lat="48.0708439"><ele>601.0</ele><time>2009-04-19T13:07:02.000Z</time><name>Alzheimergaßl 4-10, 82234 Weßling, Germany</name><extensions><nmea:speed>0.0</nmea:speed></extensions></trkpt><trkpt lon="11.2510773" lat="48.0709519"><ele>601.0</ele><time>2009-04-19T13:07:13.000Z</time><name>Alzheimergaßl 10, 82234 Weßling, Germany</name><extensions><nmea:speed>0.0</nmea:speed></extensions></trkpt><trkpt lon="11.2508561" lat="48.0711649"><ele>601.0</ele><time>2009-04-19T13:07:37.000Z</time><name>Alzheimergaßl 10, 82234 Weßling, Germany</name><extensions><nmea:speed>0.0</nmea:speed></extensions></trkpt><trkpt lon="11.2506814" lat="48.071325"><ele>600.0</ele><time>2009-04-19T13:08:00.000Z</time><name>Uferweg 6, 82234 Weßling, Germany</name><extensions><nmea:speed>0.0</nmea:speed></extensions></trkpt><trkpt lon="11.2505361" lat="48.0713997"><ele>600.0</ele><time>2009-04-19T13:08:29.000Z</time><name>Uferweg 6-16, 82234 Weßling, Germany</name><extensions><nmea:speed>0.0</nmea:speed></extensions></trkpt><trkpt lon="11.2506605" lat="48.0715362"><ele>600.0</ele><time>2009-04-19T13:09:40.000Z</time><name>Uferweg 6, 82234 Weßling, Germany</name><extensions><nmea:speed>0.0</nmea:speed></extensions></trkpt><trkpt lon="11.250821" lat="48.0716642"><ele>600.0</ele><time>2009-04-19T13:09:55.000Z</time><name>Alzheimergaßl 10, 82234 Weßling, Germany</name><extensions><nmea:speed>0.0</nmea:speed></extensions></trkpt><trkpt lon="11.2509961" lat="48.0717239"><ele>600.0</ele><time>2009-04-19T13:10:07.000Z</time><name>Alzheimergaßl 10, 82234 Weßling, Germany</name><extensions><nmea:speed>0.0</nmea:speed></extensions></trkpt><trkpt lon="11.2509434" lat="48.0718104"><ele>600.0</ele><time>2009-04-19T13:10:17.000Z</time><name>82234 Weßling, Germany</name><extensions><nmea:speed>0.0</nmea:speed></extensions></trkpt><trkpt lon="11.2504077" lat="48.0713099"><ele>596.0</ele><time>2009-04-19T13:12:08.000Z</time><name>Uferweg 6-16, 82234 Weßling, Germany</name><extensions><nmea:speed>0.0</nmea:speed></extensions></trkpt><trkpt lon="11.2502738" lat="48.0711838"><ele>599.0</ele><time>2009-04-19T13:12:20.000Z</time><name>Uferweg 6-16, 82234 Weßling, Germany</name><extensions><nmea:speed>0.0</nmea:speed></extensions></trkpt><trkpt lon="11.2501786" lat="48.0710895"><ele>599.0</ele><time>2009-04-19T13:12:28.000Z</time><name>Uferweg 6-16, 82234 Weßling, Germany</name><extensions><nmea:speed>0.0</nmea:speed></extensions></trkpt><trkpt lon="11.2499531" lat="48.0709826"><ele>599.0</ele><time>2009-04-19T13:12:40.000Z</time><name>Uferweg 6-16, 82234 Weßling, Germany</name><extensions><nmea:speed>0.0</nmea:speed></extensions></trkpt><trkpt lon="11.2496544" lat="48.0709281"><ele>599.0</ele><time>2009-04-19T13:12:54.000Z</time><name>Uferweg 6-16, 82234 Weßling, Germany</name><extensions><nmea:speed>0.0</nmea:speed></extensions></trkpt><trkpt lon="11.249409" lat="48.0709018"><ele>594.0</ele><time>2009-04-19T13:13:15.000Z</time><name>Uferweg 6-16, 82234 Weßling, Germany</name><extensions><nmea:speed>0.0</nmea:speed></extensions></trkpt><trkpt lon="11.2491447" lat="48.0708646"><ele>594.0</ele><time>2009-04-19T13:14:15.000Z</time><name>Uferweg 6-16, 82234 Weßling, Germany</name><extensions><nmea:speed>0.0</nmea:speed></extensions></trkpt><trkpt lon="11.2489843" lat="48.0708581"><ele>594.0</ele><time>2009-04-19T13:14:26.000Z</time><name>Uferweg 6-16, 82234 Weßling, Germany</name><extensions><nmea:speed>0.0</nmea:speed></extensions></trkpt><trkpt lon="11.2487609" lat="48.070854"><ele>594.0</ele><time>2009-04-19T13:14:49.000Z</time><name>Uferweg 6-16, 82234 Weßling, Germany</name><extensions><nmea:speed>0.0</nmea:speed></extensions></trkpt><trkpt lon="11.2485862" lat="48.0708937"><ele>594.0</ele><time>2009-04-19T13:15:01.000Z</time><name>Uferweg 6-16, 82234 Weßling, Germany</name><extensions><nmea:speed>0.0</nmea:speed></extensions></trkpt><trkpt lon="11.2484018" lat="48.0709369"><ele>594.0</ele><time>2009-04-19T13:15:24.000Z</time><name>Uferweg 6-16, 82234 Weßling, Germany</name><extensions><nmea:speed>0.0</nmea:speed></extensions></trkpt><trkpt lon="11.2482607" lat="48.0709754"><ele>594.0</ele><time>2009-04-19T13:15:37.000Z</time><name>Uferweg 6-16, 82234 Weßling, Germany</name><extensions><nmea:speed>0.0</nmea:speed></extensions></trkpt><trkpt lon="11.2480795" lat="48.0709643"><ele>594.0</ele><time>2009-04-19T13:16:00.000Z</time><name>Uferweg 6-16, 82234 Weßling, Germany</name><extensions><nmea:speed>0.0</nmea:speed></extensions></trkpt><trkpt lon="11.2480745" lat="48.0708006"><ele>594.0</ele><time>2009-04-19T13:16:31.000Z</time><name>Uferweg 6-16, 82234 Weßling, Germany</name><extensions><nmea:speed>0.0</nmea:speed></extensions></trkpt><trkpt lon="11.2480991" lat="48.0706865"><ele>594.0</ele><time>2009-04-19T13:16:40.000Z</time><name>Uferweg 6-16, 82234 Weßling, Germany</name><extensions><nmea:speed>0.0</nmea:speed></extensions></trkpt><trkpt lon="11.2480338" lat="48.0705884"><ele>594.0</ele><time>2009-04-19T13:16:53.000Z</time><name>Uferweg 6-16, 82234 Weßling, Germany</name><extensions><nmea:speed>0.0</nmea:speed></extensions></trkpt><trkpt lon="11.2479462" lat="48.0704005"><ele>600.0</ele><time>2009-04-19T13:17:14.000Z</time><name>Uferweg 6-16, 82234 Weßling, Germany</name><extensions><nmea:speed>0.0</nmea:speed></extensions></trkpt><trkpt lon="11.2477977" lat="48.070234"><ele>604.0</ele><time>2009-04-19T13:17:34.000Z</time><name>Am Kreuzberg 1-5, 82234 Weßling, Germany</name><extensions><nmea:speed>0.0</nmea:speed></extensions></trkpt><trkpt lon="11.247621" lat="48.0703019"><ele>604.0</ele><time>2009-04-19T13:17:48.000Z</time><name>Am Kreuzberg 1-5, 82234 Weßling, Germany</name><extensions><nmea:speed>0.0</nmea:speed></extensions></trkpt><trkpt lon="11.2480082" lat="48.0701102"><ele>600.0</ele><time>2009-04-19T13:18:27.000Z</time><name>Am Kreuzberg 1-5, 82234 Weßling, Germany</name><extensions><nmea:speed>0.0</nmea:speed></extensions></trkpt><trkpt lon="11.2481742" lat="48.0700143"><ele>600.0</ele><time>2009-04-19T13:18:40.000Z</time><name>Am Kreuzberg, 82234 Weßling, Germany</name><extensions><nmea:speed>0.0</nmea:speed></extensions></trkpt><trkpt lon="11.2482313" lat="48.069926"><ele>600.0</ele><time>2009-04-19T13:18:51.000Z</time><name>Am Kreuzberg, 82234 Weßling, Germany</name><extensions><nmea:speed>0.0</nmea:speed></extensions></trkpt><trkpt lon="11.2495638" lat="48.0701059"><ele>599.0</ele><time>2009-04-19T13:21:09.000Z</time><name>Am Karpfenwinkel 2-8, 82234 Weßling, Germany</name><extensions><nmea:speed>0.0</nmea:speed></extensions></trkpt></trkseg></trk><trk><name>1 (c)RuckiZucki #2009-04-19 11:03:44</name><trkseg><trkpt lon="11.2483758" lat="48.0697023"><ele>600.0</ele><time>2009-04-19T09:03:44.000Z</time><name>Am Kreuzberg, 82234 Weßling, Germany</name><extensions><nmea:speed>0.0</nmea:speed></extensions></trkpt><trkpt lon="11.2481373" lat="48.0697159"><ele>600.0</ele><time>2009-04-19T09:04:01.000Z</time><name>Am Kreuzberg, 82234 Weßling, Germany</name><extensions><nmea:speed>0.0</nmea:speed></extensions></trkpt><trkpt lon="11.2479257" lat="48.0697048"><ele>600.0</ele><time>2009-04-19T09:04:13.000Z</time><name>Am Kreuzberg, 82234 Weßling, Germany</name><extensions><nmea:speed>0.0</nmea:speed></extensions></trkpt><trkpt lon="11.2476851" lat="48.0697212"><ele>604.0</ele><time>2009-04-19T09:04:34.000Z</time><name>Am Kreuzberg, 82234 Weßling, Germany</name><extensions><nmea:speed>0.0</nmea:speed></extensions></trkpt><trkpt lon="11.2475587" lat="48.0696808"><ele>604.0</ele><time>2009-04-19T09:04:42.000Z</time><name>Am Kreuzberg, 82234 Weßling, Germany</name><extensions><nmea:speed>0.0</nmea:speed></extensions></trkpt><trkpt lon="11.247489" lat="48.0694782"><ele>604.0</ele><time>2009-04-19T09:04:59.000Z</time><name>Dellinger Weg 6, 82234 Weßling, Germany</name><extensions><nmea:speed>0.0</nmea:speed></extensions></trkpt><trkpt lon="11.2474896" lat="48.0693746"><ele>604.0</ele><time>2009-04-19T09:05:07.000Z</time><name>Dellinger Weg 6, 82234 Weßling, Germany</name><extensions><nmea:speed>0.0</nmea:speed></extensions></trkpt><trkpt lon="11.2474351" lat="48.0692144"><ele>604.0</ele><time>2009-04-19T09:05:21.000Z</time><name>Dellinger Weg 6, 82234 Weßling, Germany</name><extensions><nmea:speed>0.0</nmea:speed></extensions></trkpt><trkpt lon="11.2473537" lat="48.0690603"><ele>604.0</ele><time>2009-04-19T09:05:31.000Z</time><name>Dellinger Weg 6, 82234 Weßling, Germany</name><extensions><nmea:speed>0.0</nmea:speed></extensions></trkpt><trkpt lon="11.2473179" lat="48.0689334"><ele>604.0</ele><time>2009-04-19T09:05:41.000Z</time><name>Dellinger Weg 6, 82234 Weßling, Germany</name><extensions><nmea:speed>0.0</nmea:speed></extensions></trkpt><trkpt lon="11.247276" lat="48.0688155"><ele>604.0</ele><time>2009-04-19T09:05:52.000Z</time><name>Dellinger Weg 6, 82234 Weßling, Germany</name><extensions><nmea:speed>0.0</nmea:speed></extensions></trkpt><trkpt lon="11.2473435" lat="48.0686154"><ele>595.0</ele><time>2009-04-19T09:06:40.000Z</time><name>Breite Eiche, 82234 Weßling, Germany</name><extensions><nmea:speed>0.0</nmea:speed></extensions></trkpt><trkpt lon="11.2473589" lat="48.0685052"><ele>595.0</ele><time>2009-04-19T09:06:50.000Z</time><name>Breite Eiche, 82234 Weßling, Germany</name><extensions><nmea:speed>0.0</nmea:speed></extensions></trkpt><trkpt lon="11.2473826" lat="48.068334"><ele>595.0</ele><time>2009-04-19T09:07:03.000Z</time><name>Breite Eiche, 82234 Weßling, Germany</name><extensions><nmea:speed>0.0</nmea:speed></extensions></trkpt><trkpt lon="11.2474511" lat="48.0681957"><ele>595.0</ele><time>2009-04-19T09:07:14.000Z</time><name>Breite Eiche 4, 82234 Weßling, Germany</name><extensions><nmea:speed>0.0</nmea:speed></extensions></trkpt><trkpt lon="11.2475454" lat="48.0681058"><ele>595.0</ele><time>2009-04-19T09:07:24.000Z</time><name>Breite Eiche 4, 82234 Weßling, Germany</name><extensions><nmea:speed>0.0</nmea:speed></extensions></trkpt><trkpt lon="11.2476925" lat="48.0679818"><ele>595.0</ele><time>2009-04-19T09:07:35.000Z</time><name>Breite Eiche 4, 82234 Weßling, Germany</name><extensions><nmea:speed>0.0</nmea:speed></extensions></trkpt><trkpt lon="11.2477636" lat="48.0678757"><ele>591.0</ele><time>2009-04-19T09:07:45.000Z</time><name>Breite Eiche 4-6, 82234 Weßling, Germany</name><extensions><nmea:speed>0.0</nmea:speed></extensions></trkpt><trkpt lon="11.2477464" lat="48.0677801"><ele>591.0</ele><time>2009-04-19T09:08:20.000Z</time><name>Breite Eiche 4-6, 82234 Weßling, Germany</name><extensions><nmea:speed>0.0</nmea:speed></extensions></trkpt><trkpt lon="11.2477787" lat="48.0676456"><ele>591.0</ele><time>2009-04-19T09:08:31.000Z</time><name>Breite Eiche 4-6, 82234 Weßling, Germany</name><extensions><nmea:speed>0.0</nmea:speed></extensions></trkpt><trkpt lon="11.2478034" lat="48.067513"><ele>591.0</ele><time>2009-04-19T09:08:44.000Z</time><name>Breite Eiche 4-6, 82234 Weßling, Germany</name><extensions><nmea:speed>0.0</nmea:speed></extensions></trkpt><trkpt lon="11.2478646" lat="48.067386"><ele>591.0</ele><time>2009-04-19T09:08:55.000Z</time><name>Breite Eiche 4-6, 82234 Weßling, Germany</name><extensions><nmea:speed>0.0</nmea:speed></extensions></trkpt><trkpt lon="11.2479507" lat="48.0672551"><ele>592.0</ele><time>2009-04-19T09:09:07.000Z</time><name>Breite Eiche 4-6, 82234 Weßling, Germany</name><extensions><nmea:speed>0.0</nmea:speed></extensions></trkpt><trkpt lon="11.2480494" lat="48.067118"><ele>592.0</ele><time>2009-04-19T09:09:19.000Z</time><name>Breite Eiche 4-6, 82234 Weßling, Germany</name><extensions><nmea:speed>0.0</nmea:speed></extensions></trkpt><trkpt lon="11.248122" lat="48.0670024"><ele>590.0</ele><time>2009-04-19T09:09:30.000Z</time><name>Am Kreuzberg 32, 82234 Weßling, Germany</name><extensions><nmea:speed>0.0</nmea:speed></extensions></trkpt><trkpt lon="11.2481705" lat="48.0668909"><ele>590.0</ele><time>2009-04-19T09:09:41.000Z</time><name>Am Kreuzberg 32, 82234 Weßling, Germany</name><extensions><nmea:speed>0.0</nmea:speed></extensions></trkpt><trkpt lon="11.2482161" lat="48.0667611"><ele>590.0</ele><time>2009-04-19T09:09:53.000Z</time><name>Am Kreuzberg 32, 82234 Weßling, Germany</name><extensions><nmea:speed>0.0</nmea:speed></extensions></trkpt><trkpt lon="11.2483041" lat="48.0665748"><ele>590.0</ele><time>2009-04-19T09:10:14.000Z</time><name>Am Kreuzberg 32, 82234 Weßling, Germany</name><extensions><nmea:speed>0.0</nmea:speed></extensions></trkpt><trkpt lon="11.248381" lat="48.0664283"><ele>590.0</ele><time>2009-04-19T09:10:26.000Z</time><name>Am Kreuzberg 32, 82234 Weßling, Germany</name><extensions><nmea:speed>0.0</nmea:speed></extensions></trkpt><trkpt lon="11.2484867" lat="48.0662444"><ele>588.0</ele><time>2009-04-19T09:10:40.000Z</time><name>Am Kreuzberg 32, 82234 Weßling, Germany</name><extensions><nmea:speed>0.0</nmea:speed></extensions></trkpt><trkpt lon="11.2485278" lat="48.0661397"><ele>588.0</ele><time>2009-04-19T09:10:50.000Z</time><name>Am Kreuzberg 32, 82234 Weßling, Germany</name><extensions><nmea:speed>0.0</nmea:speed></extensions></trkpt><trkpt lon="11.2484943" lat="48.0659872"><ele>588.0</ele><time>2009-04-19T09:11:05.000Z</time><name>82229 Seefeld, Germany</name><extensions><nmea:speed>0.0</nmea:speed></extensions></trkpt><trkpt lon="11.2484126" lat="48.0658621"><ele>588.0</ele><time>2009-04-19T09:11:15.000Z</time><name>82229 Seefeld, Germany</name><extensions><nmea:speed>0.0</nmea:speed></extensions></trkpt><trkpt lon="11.2484302" lat="48.0657388"><ele>588.0</ele><time>2009-04-19T09:11:25.000Z</time><name>82229 Seefeld, Germany</name><extensions><nmea:speed>0.0</nmea:speed></extensions></trkpt><trkpt lon="11.2485649" lat="48.065587"><ele>588.0</ele><time>2009-04-19T09:11:40.000Z</time><name>82229 Seefeld, Germany</name><extensions><nmea:speed>0.0</nmea:speed></extensions></trkpt><trkpt lon="11.2487057" lat="48.0654564"><ele>588.0</ele><time>2009-04-19T09:11:54.000Z</time><name>82229 Seefeld, Germany</name><extensions><nmea:speed>0.0</nmea:speed></extensions></trkpt><trkpt lon="11.2487988" lat="48.0653151"><ele>588.0</ele><time>2009-04-19T09:12:07.000Z</time><name>82229 Seefeld, Germany</name><extensions><nmea:speed>0.0</nmea:speed></extensions></trkpt><trkpt lon="11.2489196" lat="48.0652047"><ele>588.0</ele><time>2009-04-19T09:12:18.000Z</time><name>82229 Seefeld, Germany</name><extensions><nmea:speed>0.0</nmea:speed></extensions></trkpt><trkpt lon="11.2490284" lat="48.0651255"><ele>588.0</ele><time>2009-04-19T09:12:36.000Z</time><name>82229 Seefeld, Germany</name><extensions><nmea:speed>0.0</nmea:speed></extensions></trkpt><trkpt lon="11.2491446" lat="48.0650343"><ele>588.0</ele><time>2009-04-19T09:12:43.000Z</time><name>82229 Seefeld, Germany</name><extensions><nmea:speed>0.0</nmea:speed></extensions></trkpt><trkpt lon="11.2493034" lat="48.0649442"><ele>588.0</ele><time>2009-04-19T09:12:57.000Z</time><name>82229 Seefeld, Germany</name><extensions><nmea:speed>0.0</nmea:speed></extensions></trkpt><trkpt lon="11.2494262" lat="48.0648443"><ele>588.0</ele><time>2009-04-19T09:13:08.000Z</time><name>82229 Seefeld, Germany</name><extensions><nmea:speed>0.0</nmea:speed></extensions></trkpt><trkpt lon="11.2495934" lat="48.0647138"><ele>592.0</ele><time>2009-04-19T09:13:22.000Z</time><name>82229 Seefeld, Germany</name><extensions><nmea:speed>0.0</nmea:speed></extensions></trkpt><trkpt lon="11.2496995" lat="48.0646157"><ele>592.0</ele><time>2009-04-19T09:13:31.000Z</time><name>82229 Seefeld, Germany</name><extensions><nmea:speed>0.0</nmea:speed></extensions></trkpt><trkpt lon="11.2497724" lat="48.0645387"><ele>592.0</ele><time>2009-04-19T09:13:41.000Z</time><name>82229 Seefeld, Germany</name><extensions><nmea:speed>0.0</nmea:speed></extensions></trkpt><trkpt lon="11.249866" lat="48.0644298"><ele>592.0</ele><time>2009-04-19T09:13:59.000Z</time><name>82229 Seefeld, Germany</name><extensions><nmea:speed>0.0</nmea:speed></extensions></trkpt><trkpt lon="11.2500053" lat="48.0642767"><ele>592.0</ele><time>2009-04-19T09:14:13.000Z</time><name>Ettenhofener Straße, 82229 Seefeld, Germany</name><extensions><nmea:speed>0.0</nmea:speed></extensions></trkpt><trkpt lon="11.2501201" lat="48.0641601"><ele>592.0</ele><time>2009-04-19T09:14:26.000Z</time><name>Ettenhofener Straße, 82229 Seefeld, Germany</name><extensions><nmea:speed>0.0</nmea:speed></extensions></trkpt><trkpt lon="11.2502173" lat="48.0640854"><ele>592.0</ele><time>2009-04-19T09:14:37.000Z</time><name>Ettenhofener Straße, 82229 Seefeld, Germany</name><extensions><nmea:speed>0.0</nmea:speed></extensions></trkpt><trkpt lon="11.2504603" lat="48.0639876"><ele>599.0</ele><time>2009-04-19T09:14:57.000Z</time><name>Ettenhofener Straße, 82229 Seefeld, Germany</name><extensions><nmea:speed>0.0</nmea:speed></extensions></trkpt><trkpt lon="11.2506228" lat="48.0639418"><ele>599.0</ele><time>2009-04-19T09:15:09.000Z</time><name>Ettenhofener Straße, 82229 Seefeld, Germany</name><extensions><nmea:speed>0.0</nmea:speed></extensions></trkpt><trkpt lon="11.2507908" lat="48.0639102"><ele>599.0</ele><time>2009-04-19T09:15:20.000Z</time><name>Ettenhofener Straße, 82229 Seefeld, Germany</name><extensions><nmea:speed>0.0</nmea:speed></extensions></trkpt><trkpt lon="11.2509978" lat="48.0638573"><ele>599.0</ele><time>2009-04-19T09:15:30.000Z</time><name>Ettenhofener Straße, 82229 Seefeld, Germany</name><extensions><nmea:speed>0.0</nmea:speed></extensions></trkpt><trkpt lon="11.2511685" lat="48.0638116"><ele>599.0</ele><time>2009-04-19T09:15:40.000Z</time><name>Ettenhofener Straße, 82229 Seefeld, Germany</name><extensions><nmea:speed>0.0</nmea:speed></extensions></trkpt><trkpt lon="11.2512319" lat="48.0637039"><ele>601.0</ele><time>2009-04-19T09:15:54.000Z</time><name>Ettenhofener Straße, 82229 Seefeld, Germany</name><extensions><nmea:speed>0.0</nmea:speed></extensions></trkpt><trkpt lon="11.2511503" lat="48.0635745"><ele>601.0</ele><time>2009-04-19T09:16:07.000Z</time><name>Ettenhofener Straße, 82229 Seefeld, Germany</name><extensions><nmea:speed>0.0</nmea:speed></extensions></trkpt><trkpt lon="11.2509998" lat="48.0633909"><ele>601.0</ele><time>2009-04-19T09:16:25.000Z</time><name>Ettenhofener Straße, 82229 Seefeld, Germany</name><extensions><nmea:speed>0.0</nmea:speed></extensions></trkpt><trkpt lon="11.2509685" lat="48.0632601"><ele>601.0</ele><time>2009-04-19T09:16:38.000Z</time><name>Ettenhofener Straße, 82229 Seefeld, Germany</name><extensions><nmea:speed>0.0</nmea:speed></extensions></trkpt><trkpt lon="11.2509259" lat="48.0631409"><ele>601.0</ele><time>2009-04-19T09:16:50.000Z</time><name>Ettenhofener Straße, 82229 Seefeld, Germany</name><extensions><nmea:speed>0.0</nmea:speed></extensions></trkpt><trkpt lon="11.2508515" lat="48.0629919"><ele>601.0</ele><time>2009-04-19T09:17:13.000Z</time><name>Ettenhofener Straße, 82229 Seefeld, Germany</name><extensions><nmea:speed>0.0</nmea:speed></extensions></trkpt><trkpt lon="11.2507205" lat="48.0628208"><ele>596.0</ele><time>2009-04-19T09:18:25.000Z</time><name>Ettenhofener Straße, 82229 Seefeld, Germany</name><extensions><nmea:speed>0.0</nmea:speed></extensions></trkpt><trkpt lon="11.2506922" lat="48.0626613"><ele>596.0</ele><time>2009-04-19T09:18:38.000Z</time><name>Ettenhofener Straße, 82229 Seefeld, Germany</name><extensions><nmea:speed>0.0</nmea:speed></extensions></trkpt><trkpt lon="11.2507399" lat="48.0625109"><ele>596.0</ele><time>2009-04-19T09:18:42.000Z</time><name>Ettenhofener Straße, 82229 Seefeld, Germany</name><extensions><nmea:speed>0.0</nmea:speed></extensions></trkpt><trkpt lon="11.2506643" lat="48.0622769"><ele>596.0</ele><time>2009-04-19T09:18:55.000Z</time><name>Ettenhofener Straße, 82229 Seefeld, Germany</name><extensions><nmea:speed>0.0</nmea:speed></extensions></trkpt><trkpt lon="11.2505763" lat="48.0621671"><ele>596.0</ele><time>2009-04-19T09:19:07.000Z</time><name>Ettenhofener Straße, 82229 Seefeld, Germany</name><extensions><nmea:speed>0.0</nmea:speed></extensions></trkpt><trkpt lon="11.2505121" lat="48.0620091"><ele>597.0</ele><time>2009-04-19T09:19:51.000Z</time><name>Ettenhofener Straße, 82229 Seefeld, Germany</name><extensions><nmea:speed>0.0</nmea:speed></extensions></trkpt><trkpt lon="11.250434" lat="48.0617511"><ele>597.0</ele><time>2009-04-19T09:20:15.000Z</time><name>Ettenhofener Straße, 82229 Seefeld, Germany</name><extensions><nmea:speed>0.0</nmea:speed></extensions></trkpt><trkpt lon="11.2503292" lat="48.0616283"><ele>594.0</ele><time>2009-04-19T09:20:27.000Z</time><name>Ettenhofener Straße, 82229 Seefeld, Germany</name><extensions><nmea:speed>0.0</nmea:speed></extensions></trkpt><trkpt lon="11.2502243" lat="48.0615257"><ele>594.0</ele><time>2009-04-19T09:20:36.000Z</time><name>Ettenhofener Straße, 82229 Seefeld, Germany</name><extensions><nmea:speed>0.0</nmea:speed></extensions></trkpt><trkpt lon="11.2501085" lat="48.0613611"><ele>594.0</ele><time>2009-04-19T09:20:48.000Z</time><name>Ettenhofener Straße, 82229 Seefeld, Germany</name><extensions><nmea:speed>0.0</nmea:speed></extensions></trkpt><trkpt lon="11.250007" lat="48.0612205"><ele>592.0</ele><time>2009-04-19T09:20:58.000Z</time><name>Ettenhofener Straße, 82229 Seefeld, Germany</name><extensions><nmea:speed>0.0</nmea:speed></extensions></trkpt><trkpt lon="11.2499031" lat="48.0611031"><ele>592.0</ele><time>2009-04-19T09:21:09.000Z</time><name>Ettenhofener Straße, 82229 Seefeld, Germany</name><extensions><nmea:speed>0.0</nmea:speed></extensions></trkpt><trkpt lon="11.2497401" lat="48.0609895"><ele>592.0</ele><time>2009-04-19T09:21:21.000Z</time><name>Ettenhofener Straße, 82229 Seefeld, Germany</name><extensions><nmea:speed>0.0</nmea:speed></extensions></trkpt><trkpt lon="11.2496527" lat="48.0608627"><ele>592.0</ele><time>2009-04-19T09:21:35.000Z</time><name>Ettenhofener Straße, 82229 Seefeld, Germany</name><extensions><nmea:speed>0.0</nmea:speed></extensions></trkpt><trkpt lon="11.2495762" lat="48.0607569"><ele>588.0</ele><time>2009-04-19T09:21:58.000Z</time><name>Ettenhofener Straße, 82229 Seefeld, Germany</name><extensions><nmea:speed>0.0</nmea:speed></extensions></trkpt><trkpt lon="11.2496617" lat="48.0606099"><ele>592.0</ele><time>2009-04-19T09:22:20.000Z</time><name>Ettenhofener Straße, 82229 Seefeld, Germany</name><extensions><nmea:speed>0.0</nmea:speed></extensions></trkpt><trkpt lon="11.2495903" lat="48.0605103"><ele>592.0</ele><time>2009-04-19T09:22:32.000Z</time><name>Ettenhofener Straße, 82229 Seefeld, Germany</name><extensions><nmea:speed>0.0</nmea:speed></extensions></trkpt><trkpt lon="11.2493917" lat="48.0603515"><ele>585.0</ele><time>2009-04-19T09:23:08.000Z</time><name>Ettenhofener Straße, 82229 Seefeld, Germany</name><extensions><nmea:speed>0.0</nmea:speed></extensions></trkpt><trkpt lon="11.2492287" lat="48.0602647"><ele>585.0</ele><time>2009-04-19T09:23:18.000Z</time><name>Ettenhofener Straße, 82229 Seefeld, Germany</name><extensions><nmea:speed>0.0</nmea:speed></extensions></trkpt><trkpt lon="11.24903" lat="48.060178"><ele>585.0</ele><time>2009-04-19T09:23:29.000Z</time><name>Ettenhofener Straße, 82229 Seefeld, Germany</name><extensions><nmea:speed>0.0</nmea:speed></extensions></trkpt><trkpt lon="11.248834" lat="48.060079"><ele>585.0</ele><time>2009-04-19T09:23:40.000Z</time><name>Ettenhofener Straße, 82229 Seefeld, Germany</name><extensions><nmea:speed>0.0</nmea:speed></extensions></trkpt><trkpt lon="11.2485971" lat="48.0599599"><ele>578.0</ele><time>2009-04-19T09:24:33.000Z</time><name>Ettenhofener Straße, 82229 Seefeld, Germany</name><extensions><nmea:speed>0.0</nmea:speed></extensions></trkpt><trkpt lon="11.248464" lat="48.0598986"><ele>578.0</ele><time>2009-04-19T09:24:43.000Z</time><name>Ettenhofener Straße, 82229 Seefeld, Germany</name><extensions><nmea:speed>0.0</nmea:speed></extensions></trkpt><trkpt lon="11.2482525" lat="48.0598217"><ele>578.0</ele><time>2009-04-19T09:24:55.000Z</time><name>Ettenhofener Straße, 82229 Seefeld, Germany</name><extensions><nmea:speed>0.0</nmea:speed></extensions></trkpt><trkpt lon="11.2481155" lat="48.0597545"><ele>578.0</ele><time>2009-04-19T09:25:06.000Z</time><name>Ettenhofener Straße, 82229 Seefeld, Germany</name><extensions><nmea:speed>0.0</nmea:speed></extensions></trkpt><trkpt lon="11.2478598" lat="48.0596879"><ele>574.0</ele><time>2009-04-19T09:25:20.000Z</time><name>Ettenhofener Straße, 82229 Seefeld, Germany</name><extensions><nmea:speed>0.0</nmea:speed></extensions></trkpt><trkpt lon="11.2476721" lat="48.0596275"><ele>574.0</ele><time>2009-04-19T09:25:31.000Z</time><name>Ettenhofener Straße, 82229 Seefeld, Germany</name><extensions><nmea:speed>0.0</nmea:speed></extensions></trkpt><trkpt lon="11.2474037" lat="48.0596226"><ele>574.0</ele><time>2009-04-19T09:25:44.000Z</time><name>Ettenhofener Straße, 82229 Seefeld, Germany</name><extensions><nmea:speed>0.0</nmea:speed></extensions></trkpt><trkpt lon="11.2471792" lat="48.0596262"><ele>574.0</ele><time>2009-04-19T09:25:56.000Z</time><name>Ettenhofener Straße, 82229 Seefeld, Germany</name><extensions><nmea:speed>0.0</nmea:speed></extensions></trkpt><trkpt lon="11.2469947" lat="48.0596102"><ele>572.0</ele><time>2009-04-19T09:26:07.000Z</time><name>Ettenhofener Straße, 82229 Seefeld, Germany</name><extensions><nmea:speed>0.0</nmea:speed></extensions></trkpt><trkpt lon="11.2467088" lat="48.0596222"><ele>572.0</ele><time>2009-04-19T09:26:37.000Z</time><name>Dellinger Weg 12, 82234 Weßling, Germany</name><extensions><nmea:speed>0.0</nmea:speed></extensions></trkpt><trkpt lon="11.2464957" lat="48.0596039"><ele>572.0</ele><time>2009-04-19T09:26:50.000Z</time><name>Dellinger Weg 12, 82234 Weßling, Germany</name><extensions><nmea:speed>0.0</nmea:speed></extensions></trkpt><trkpt lon="11.246221" lat="48.0596017"><ele>570.0</ele><time>2009-04-19T09:27:04.000Z</time><name>Dellinger Weg 12, 82234 Weßling, Germany</name><extensions><nmea:speed>0.0</nmea:speed></extensions></trkpt><trkpt lon="11.2460633" lat="48.0596089"><ele>570.0</ele><time>2009-04-19T09:27:13.000Z</time><name>Dellinger Weg 12, 82234 Weßling, Germany</name><extensions><nmea:speed>0.0</nmea:speed></extensions></trkpt><trkpt lon="11.2458462" lat="48.0596002"><ele>570.0</ele><time>2009-04-19T09:27:25.000Z</time><name>Dellinger Weg 12, 82234 Weßling, Germany</name><extensions><nmea:speed>0.0</nmea:speed></extensions></trkpt><trkpt lon="11.2457023" lat="48.059576"><ele>570.0</ele><time>2009-04-19T09:27:38.000Z</time><name>Dellinger Weg 12, 82234 Weßling, Germany</name><extensions><nmea:speed>0.0</nmea:speed></extensions></trkpt><trkpt lon="11.2455313" lat="48.0596196"><ele>570.0</ele><time>2009-04-19T09:28:24.000Z</time><name>Dellinger Weg 12, 82234 Weßling, Germany</name><extensions><nmea:speed>0.0</nmea:speed></extensions></trkpt><trkpt lon="11.2453716" lat="48.0596367"><ele>567.0</ele><time>2009-04-19T09:28:33.000Z</time><name>Dellinger Weg 12, 82234 Weßling, Germany</name><extensions><nmea:speed>0.0</nmea:speed></extensions></trkpt><trkpt lon="11.2451755" lat="48.0596078"><ele>567.0</ele><time>2009-04-19T09:28:43.000Z</time><name>Dellinger Weg 12, 82234 Weßling, Germany</name><extensions><nmea:speed>0.0</nmea:speed></extensions></trkpt><trkpt lon="11.2449651" lat="48.0595911"><ele>567.0</ele><time>2009-04-19T09:28:57.000Z</time><name>Dellinger Weg 12, 82234 Weßling, Germany</name><extensions><nmea:speed>0.0</nmea:speed></extensions></trkpt><trkpt lon="11.2446322" lat="48.0595876"><ele>567.0</ele><time>2009-04-19T09:29:17.000Z</time><name>Dellinger Weg 12, 82234 Weßling, Germany</name><extensions><nmea:speed>0.0</nmea:speed></extensions></trkpt><trkpt lon="11.2444126" lat="48.0596012"><ele>567.0</ele><time>2009-04-19T09:29:28.000Z</time><name>Dellinger Weg 12, 82234 Weßling, Germany</name><extensions><nmea:speed>0.0</nmea:speed></extensions></trkpt><trkpt lon="11.2442431" lat="48.0596121"><ele>567.0</ele><time>2009-04-19T09:29:39.000Z</time><name>Dellinger Weg 12, 82234 Weßling, Germany</name><extensions><nmea:speed>0.0</nmea:speed></extensions></trkpt><trkpt lon="11.2440839" lat="48.0596294"><ele>567.0</ele><time>2009-04-19T09:29:48.000Z</time><name>Dellinger Weg 12, 82234 Weßling, Germany</name><extensions><nmea:speed>0.0</nmea:speed></extensions></trkpt><trkpt lon="11.243867" lat="48.0596281"><ele>567.0</ele><time>2009-04-19T09:30:00.000Z</time><name>Dellinger Weg 12, 82234 Weßling, Germany</name><extensions><nmea:speed>0.0</nmea:speed></extensions></trkpt><trkpt lon="11.2436715" lat="48.059645"><ele>568.0</ele><time>2009-04-19T09:30:11.000Z</time><name>Dellinger Weg 12, 82234 Weßling, Germany</name><extensions><nmea:speed>0.0</nmea:speed></extensions></trkpt><trkpt lon="11.243424" lat="48.0596081"><ele>568.0</ele><time>2009-04-19T09:30:24.000Z</time><name>82229 Seefeld, Germany</name><extensions><nmea:speed>0.0</nmea:speed></extensions></trkpt><trkpt lon="11.2432182" lat="48.0596002"><ele>568.0</ele><time>2009-04-19T09:30:35.000Z</time><name>82229 Seefeld, Germany</name><extensions><nmea:speed>0.0</nmea:speed></extensions></trkpt><trkpt lon="11.2429732" lat="48.05961"><ele>568.0</ele><time>2009-04-19T09:30:47.000Z</time><name>82229 Seefeld, Germany</name><extensions><nmea:speed>0.0</nmea:speed></extensions></trkpt><trkpt lon="11.242756" lat="48.0595996"><ele>569.0</ele><time>2009-04-19T09:30:58.000Z</time><name>Ettenhofener Straße, 82229 Seefeld, Germany</name><extensions><nmea:speed>0.0</nmea:speed></extensions></trkpt><trkpt lon="11.2424866" lat="48.0595977"><ele>569.0</ele><time>2009-04-19T09:31:14.000Z</time><name>Ettenhofener Straße, 82229 Seefeld, Germany</name><extensions><nmea:speed>0.0</nmea:speed></extensions></trkpt><trkpt lon="11.2422823" lat="48.0595895"><ele>569.0</ele><time>2009-04-19T09:31:27.000Z</time><name>Ettenhofener Straße, 82229 Seefeld, Germany</name><extensions><nmea:speed>0.0</nmea:speed></extensions></trkpt><trkpt lon="11.2420781" lat="48.0595883"><ele>573.0</ele><time>2009-04-19T09:31:38.000Z</time><name>Ettenhofener Straße, 82229 Seefeld, Germany</name><extensions><nmea:speed>0.0</nmea:speed></extensions></trkpt><trkpt lon="11.2418883" lat="48.059591"><ele>573.0</ele><time>2009-04-19T09:31:51.000Z</time><name>Ettenhofener Straße, 82229 Seefeld, Germany</name><extensions><nmea:speed>0.0</nmea:speed></extensions></trkpt><trkpt lon="11.2417142" lat="48.0595796"><ele>569.0</ele><time>2009-04-19T09:32:05.000Z</time><name>Ettenhofener Straße, 82229 Seefeld, Germany</name><extensions><nmea:speed>0.0</nmea:speed></extensions></trkpt><trkpt lon="11.2415259" lat="48.0595967"><ele>573.0</ele><time>2009-04-19T09:32:17.000Z</time><name>Ettenhofener Straße, 82229 Seefeld, Germany</name><extensions><nmea:speed>0.0</nmea:speed></extensions></trkpt><trkpt lon="11.2413037" lat="48.0595894"><ele>573.0</ele><time>2009-04-19T09:32:32.000Z</time><name>Ettenhofener Straße, 82229 Seefeld, Germany</name><extensions><nmea:speed>0.0</nmea:speed></extensions></trkpt><trkpt lon="11.2411081" lat="48.059583"><ele>572.0</ele><time>2009-04-19T09:32:44.000Z</time><name>Ettenhofener Straße, 82229 Seefeld, Germany</name><extensions><nmea:speed>0.0</nmea:speed></extensions></trkpt><trkpt lon="11.2409022" lat="48.0595937"><ele>580.0</ele><time>2009-04-19T09:32:56.000Z</time><name>Ettenhofener Straße, 82229 Seefeld, Germany</name><extensions><nmea:speed>0.0</nmea:speed></extensions></trkpt><trkpt lon="11.2407441" lat="48.059589"><ele>580.0</ele><time>2009-04-19T09:33:07.000Z</time><name>Ettenhofener Straße, 82229 Seefeld, Germany</name><extensions><nmea:speed>0.0</nmea:speed></extensions></trkpt><trkpt lon="11.2405751" lat="48.0595875"><ele>580.0</ele><time>2009-04-19T09:33:30.000Z</time><name>Ettenhofener Straße, 82229 Seefeld, Germany</name><extensions><nmea:speed>0.0</nmea:speed></extensions></trkpt><trkpt lon="11.2403278" lat="48.0595748"><ele>576.0</ele><time>2009-04-19T09:33:47.000Z</time><name>Ettenhofener Straße, 82229 Seefeld, Germany</name><extensions><nmea:speed>0.0</nmea:speed></extensions></trkpt><trkpt lon="11.2401533" lat="48.059554"><ele>576.0</ele><time>2009-04-19T09:33:58.000Z</time><name>Ettenhofener Straße, 82229 Seefeld, Germany</name><extensions><nmea:speed>0.0</nmea:speed></extensions></trkpt><trkpt lon="11.2399907" lat="48.0595476"><ele>576.0</ele><time>2009-04-19T09:34:07.000Z</time><name>Ettenhofener Straße, 82229 Seefeld, Germany</name><extensions><nmea:speed>0.0</nmea:speed></extensions></trkpt><trkpt lon="11.2397781" lat="48.0595772"><ele>576.0</ele><time>2009-04-19T09:34:26.000Z</time><name>Ettenhofener Straße, 82229 Seefeld, Germany</name><extensions><nmea:speed>0.0</nmea:speed></extensions></trkpt><trkpt lon="11.2395069" lat="48.059571"><ele>580.0</ele><time>2009-04-19T09:34:42.000Z</time><name>Ettenhofener Straße, 82229 Seefeld, Germany</name><extensions><nmea:speed>0.0</nmea:speed></extensions></trkpt><trkpt lon="11.2393279" lat="48.0595755"><ele>580.0</ele><time>2009-04-19T09:34:52.000Z</time><name>Ettenhofener Straße, 82229 Seefeld, Germany</name><extensions><nmea:speed>0.0</nmea:speed></extensions></trkpt><trkpt lon="11.2391802" lat="48.0595807"><ele>580.0</ele><time>2009-04-19T09:35:02.000Z</time><name>Ettenhofener Straße, 82229 Seefeld, Germany</name><extensions><nmea:speed>0.0</nmea:speed></extensions></trkpt><trkpt lon="11.2389777" lat="48.0595727"><ele>580.0</ele><time>2009-04-19T09:35:14.000Z</time><name>Ettenhofener Straße, 82229 Seefeld, Germany</name><extensions><nmea:speed>0.0</nmea:speed></extensions></trkpt><trkpt lon="11.2387787" lat="48.0595708"><ele>580.0</ele><time>2009-04-19T09:35:25.000Z</time><name>Ettenhofener Straße, 82229 Seefeld, Germany</name><extensions><nmea:speed>0.0</nmea:speed></extensions></trkpt><trkpt lon="11.2386697" lat="48.0596335"><ele>587.0</ele><time>2009-04-19T09:35:37.000Z</time><name>Mühlstraße, 82229 Seefeld, Germany</name><extensions><nmea:speed>0.0</nmea:speed></extensions></trkpt><trkpt lon="11.238725" lat="48.0597443"><ele>587.0</ele><time>2009-04-19T09:35:48.000Z</time><name>Mühlstraße, 82229 Seefeld, Germany</name><extensions><nmea:speed>0.0</nmea:speed></extensions></trkpt><trkpt lon="11.2386603" lat="48.0599083"><ele>587.0</ele><time>2009-04-19T09:35:59.000Z</time><name>Mühlstraße 2, 82229 Seefeld, Germany</name><extensions><nmea:speed>0.0</nmea:speed></extensions></trkpt><trkpt lon="11.2386071" lat="48.0600425"><ele>587.0</ele><time>2009-04-19T09:36:11.000Z</time><name>Mühlstraße 2, 82229 Seefeld, Germany</name><extensions><nmea:speed>0.0</nmea:speed></extensions></trkpt><trkpt lon="11.2385361" lat="48.0602271"><ele>587.0</ele><time>2009-04-19T09:36:26.000Z</time><name>Mühlstraße 2, 82229 Seefeld, Germany</name><extensions><nmea:speed>0.0</nmea:speed></extensions></trkpt><trkpt lon="11.2384664" lat="48.0603553"><ele>587.0</ele><time>2009-04-19T09:36:38.000Z</time><name>Mühlstraße 2, 82229 Seefeld, Germany</name><extensions><nmea:speed>0.0</nmea:speed></extensions></trkpt><trkpt lon="11.2383839" lat="48.0604672"><ele>590.0</ele><time>2009-04-19T09:36:49.000Z</time><name>Mühlstraße 2, 82229 Seefeld, Germany</name><extensions><nmea:speed>0.0</nmea:speed></extensions></trkpt><trkpt lon="11.2381884" lat="48.0605001"><ele>590.0</ele><time>2009-04-19T09:37:12.000Z</time><name>Mühlstraße 2, 82229 Seefeld, Germany</name><extensions><nmea:speed>0.0</nmea:speed></extensions></trkpt><trkpt lon="11.2381046" lat="48.0603579"><ele>587.0</ele><time>2009-04-19T09:37:26.000Z</time><name>Mühlstraße 2, 82229 Seefeld, Germany</name><extensions><nmea:speed>0.0</nmea:speed></extensions></trkpt><trkpt lon="11.2379446" lat="48.0602019"><ele>587.0</ele><time>2009-04-19T09:37:46.000Z</time><name>Mühlstraße 2, 82229 Seefeld, Germany</name><extensions><nmea:speed>0.0</nmea:speed></extensions></trkpt><trkpt lon="11.2377806" lat="48.0600974"><ele>585.0</ele><time>2009-04-19T09:37:59.000Z</time><name>Mühlstraße 2, 82229 Seefeld, Germany</name><extensions><nmea:speed>0.0</nmea:speed></extensions></trkpt><trkpt lon="11.2376504" lat="48.0600041"><ele>585.0</ele><time>2009-04-19T09:38:10.000Z</time><name>St2068, 82229 Seefeld, Germany</name><extensions><nmea:speed>0.0</nmea:speed></extensions></trkpt><trkpt lon="11.2374842" lat="48.0599243"><ele>585.0</ele><time>2009-04-19T09:38:22.000Z</time><name>St2068, 82229 Seefeld, Germany</name><extensions><nmea:speed>0.0</nmea:speed></extensions></trkpt><trkpt lon="11.2372842" lat="48.0598794"><ele>585.0</ele><time>2009-04-19T09:38:46.000Z</time><name>St2068, 82229 Seefeld, Germany</name><extensions><nmea:speed>0.0</nmea:speed></extensions></trkpt><trkpt lon="11.2370916" lat="48.0598243"><ele>585.0</ele><time>2009-04-19T09:39:03.000Z</time><name>St2068, 82229 Seefeld, Germany</name><extensions><nmea:speed>0.0</nmea:speed></extensions></trkpt><trkpt lon="11.2369211" lat="48.0597903"><ele>584.0</ele><time>2009-04-19T09:39:11.000Z</time><name>St2068, 82229 Seefeld, Germany</name><extensions><nmea:speed>0.0</nmea:speed></extensions></trkpt><trkpt lon="11.2367855" lat="48.0598149"><ele>584.0</ele><time>2009-04-19T09:39:22.000Z</time><name>St2068, 82229 Seefeld, Germany</name><extensions><nmea:speed>0.0</nmea:speed></extensions></trkpt><trkpt lon="11.2364289" lat="48.0598461"><ele>584.0</ele><time>2009-04-19T09:39:45.000Z</time><name>St2068, 82229 Seefeld, Germany</name><extensions><nmea:speed>0.0</nmea:speed></extensions></trkpt><trkpt lon="11.2362006" lat="48.0598424"><ele>583.0</ele><time>2009-04-19T09:39:56.000Z</time><name>St2068, 82229 Seefeld, Germany</name><extensions><nmea:speed>0.0</nmea:speed></extensions></trkpt><trkpt lon="11.2358459" lat="48.0598625"><ele>583.0</ele><time>2009-04-19T09:40:23.000Z</time><name>Dellinger Weg, 82229 Seefeld, Germany</name><extensions><nmea:speed>0.0</nmea:speed></extensions></trkpt><trkpt lon="11.235654" lat="48.0600091"><ele>583.0</ele><time>2009-04-19T09:40:56.000Z</time><name>Dellinger Weg, 82229 Seefeld, Germany</name><extensions><nmea:speed>0.0</nmea:speed></extensions></trkpt><trkpt lon="11.2355704" lat="48.0600933"><ele>583.0</ele><time>2009-04-19T09:41:05.000Z</time><name>Dellinger Weg, 82229 Seefeld, Germany</name><extensions><nmea:speed>0.0</nmea:speed></extensions></trkpt><trkpt lon="11.2354735" lat="48.060212"><ele>583.0</ele><time>2009-04-19T09:41:16.000Z</time><name>Dellinger Weg, 82229 Seefeld, Germany</name><extensions><nmea:speed>0.0</nmea:speed></extensions></trkpt><trkpt lon="11.2353826" lat="48.0603053"><ele>580.0</ele><time>2009-04-19T09:41:27.000Z</time><name>Dellinger Weg, 82229 Seefeld, Germany</name><extensions><nmea:speed>0.0</nmea:speed></extensions></trkpt><trkpt lon="11.2352015" lat="48.0604675"><ele>589.0</ele><time>2009-04-19T09:41:48.000Z</time><name>Dellinger Weg, 82229 Seefeld, Germany</name><extensions><nmea:speed>0.0</nmea:speed></extensions></trkpt><trkpt lon="11.2349862" lat="48.0604765"><ele>589.0</ele><time>2009-04-19T09:42:04.000Z</time><name>Dellinger Weg, 82229 Seefeld, Germany</name><extensions><nmea:speed>0.0</nmea:speed></extensions></trkpt><trkpt lon="11.2346229" lat="48.0603836"><ele>580.0</ele><time>2009-04-19T09:42:35.000Z</time><name>Dellinger Weg, 82229 Seefeld, Germany</name><extensions><nmea:speed>0.0</nmea:speed></extensions></trkpt><trkpt lon="11.2344738" lat="48.0603014"><ele>576.0</ele><time>2009-04-19T09:42:49.000Z</time><name>Dellinger Weg, 82229 Seefeld, Germany</name><extensions><nmea:speed>0.0</nmea:speed></extensions></trkpt><trkpt lon="11.2343365" lat="48.0602049"><ele>576.0</ele><time>2009-04-19T09:43:15.000Z</time><name>Dellinger Weg, 82229 Seefeld, Germany</name><extensions><nmea:speed>0.0</nmea:speed></extensions></trkpt><trkpt lon="11.2342207" lat="48.0601059"><ele>576.0</ele><time>2009-04-19T09:43:28.000Z</time><name>Dellinger Weg, 82229 Seefeld, Germany</name><extensions><nmea:speed>0.0</nmea:speed></extensions></trkpt><trkpt lon="11.2340874" lat="48.0600007"><ele>576.0</ele><time>2009-04-19T09:43:39.000Z</time><name>Dellinger Weg, 82229 Seefeld, Germany</name><extensions><nmea:speed>0.0</nmea:speed></extensions></trkpt><trkpt lon="11.2339598" lat="48.0599189"><ele>576.0</ele><time>2009-04-19T09:43:56.000Z</time><name>82229 Seefeld, Germany</name><extensions><nmea:speed>0.0</nmea:speed></extensions></trkpt><trkpt lon="11.2338607" lat="48.0598437"><ele>576.0</ele><time>2009-04-19T09:44:06.000Z</time><name>82229 Seefeld, Germany</name><extensions><nmea:speed>0.0</nmea:speed></extensions></trkpt><trkpt lon="11.2337089" lat="48.0597342"><ele>580.0</ele><time>2009-04-19T09:44:19.000Z</time><name>82229 Seefeld, Germany</name><extensions><nmea:speed>0.0</nmea:speed></extensions></trkpt><trkpt lon="11.2336006" lat="48.059633"><ele>580.0</ele><time>2009-04-19T09:44:29.000Z</time><name>82229 Seefeld, Germany</name><extensions><nmea:speed>0.0</nmea:speed></extensions></trkpt><trkpt lon="11.2334414" lat="48.0595157"><ele>575.0</ele><time>2009-04-19T09:44:42.000Z</time><name>82229 Seefeld, Germany</name><extensions><nmea:speed>0.0</nmea:speed></extensions></trkpt><trkpt lon="11.2333401" lat="48.0594452"><ele>575.0</ele><time>2009-04-19T09:44:50.000Z</time><name>82229 Seefeld, Germany</name><extensions><nmea:speed>0.0</nmea:speed></extensions></trkpt><trkpt lon="11.233179" lat="48.0593194"><ele>575.0</ele><time>2009-04-19T09:45:03.000Z</time><name>82229 Seefeld, Germany</name><extensions><nmea:speed>0.0</nmea:speed></extensions></trkpt><trkpt lon="11.2330427" lat="48.0591943"><ele>575.0</ele><time>2009-04-19T09:45:15.000Z</time><name>82229 Seefeld, Germany</name><extensions><nmea:speed>0.0</nmea:speed></extensions></trkpt><trkpt lon="11.2329158" lat="48.0590595"><ele>581.0</ele><time>2009-04-19T09:45:27.000Z</time><name>82229 Seefeld, Germany</name><extensions><nmea:speed>0.0</nmea:speed></extensions></trkpt><trkpt lon="11.232763" lat="48.0589248"><ele>581.0</ele><time>2009-04-19T09:45:41.000Z</time><name>82229 Seefeld, Germany</name><extensions><nmea:speed>0.0</nmea:speed></extensions></trkpt><trkpt lon="11.2325718" lat="48.0587765"><ele>581.0</ele><time>2009-04-19T09:45:57.000Z</time><name>82229 Seefeld, Germany</name><extensions><nmea:speed>0.0</nmea:speed></extensions></trkpt><trkpt lon="11.2324315" lat="48.0586442"><ele>572.0</ele><time>2009-04-19T09:46:10.000Z</time><name>82229 Seefeld, Germany</name><extensions><nmea:speed>0.0</nmea:speed></extensions></trkpt><trkpt lon="11.2322988" lat="48.0585234"><ele>572.0</ele><time>2009-04-19T09:46:23.000Z</time><name>82229 Seefeld, Germany</name><extensions><nmea:speed>0.0</nmea:speed></extensions></trkpt><trkpt lon="11.2320937" lat="48.0583892"><ele>572.0</ele><time>2009-04-19T09:46:37.000Z</time><name>82229 Seefeld, Germany</name><extensions><nmea:speed>0.0</nmea:speed></extensions></trkpt><trkpt lon="11.2319309" lat="48.058288"><ele>578.0</ele><time>2009-04-19T09:46:50.000Z</time><name>82229 Seefeld, Germany</name><extensions><nmea:speed>0.0</nmea:speed></extensions></trkpt><trkpt lon="11.2317131" lat="48.0581815"><ele>578.0</ele><time>2009-04-19T09:47:04.000Z</time><name>82229 Seefeld, Germany</name><extensions><nmea:speed>0.0</nmea:speed></extensions></trkpt><trkpt lon="11.231532" lat="48.0581217"><ele>578.0</ele><time>2009-04-19T09:47:15.000Z</time><name>82229 Seefeld, Germany</name><extensions><nmea:speed>0.0</nmea:speed></extensions></trkpt><trkpt lon="11.231368" lat="48.0580551"><ele>578.0</ele><time>2009-04-19T09:47:26.000Z</time><name>82229 Seefeld, Germany</name><extensions><nmea:speed>0.0</nmea:speed></extensions></trkpt><trkpt lon="11.2312012" lat="48.058003"><ele>582.0</ele><time>2009-04-19T09:47:40.000Z</time><name>82229 Seefeld, Germany</name><extensions><nmea:speed>0.0</nmea:speed></extensions></trkpt><trkpt lon="11.2309817" lat="48.0579042"><ele>573.0</ele><time>2009-04-19T09:47:54.000Z</time><name>82229 Seefeld, Germany</name><extensions><nmea:speed>0.0</nmea:speed></extensions></trkpt><trkpt lon="11.2308163" lat="48.0578041"><ele>573.0</ele><time>2009-04-19T09:48:06.000Z</time><name>82229 Seefeld, Germany</name><extensions><nmea:speed>0.0</nmea:speed></extensions></trkpt><trkpt lon="11.2306603" lat="48.0576958"><ele>573.0</ele><time>2009-04-19T09:48:38.000Z</time><name>82229 Seefeld, Germany</name><extensions><nmea:speed>0.0</nmea:speed></extensions></trkpt><trkpt lon="11.2304729" lat="48.0575801"><ele>573.0</ele><time>2009-04-19T09:48:53.000Z</time><name>82229 Seefeld, Germany</name><extensions><nmea:speed>0.0</nmea:speed></extensions></trkpt><trkpt lon="11.2303337" lat="48.0574933"><ele>575.0</ele><time>2009-04-19T09:49:04.000Z</time><name>82229 Seefeld, Germany</name><extensions><nmea:speed>0.0</nmea:speed></extensions></trkpt><trkpt lon="11.2301877" lat="48.0574128"><ele>575.0</ele><time>2009-04-19T09:49:15.000Z</time><name>82229 Seefeld, Germany</name><extensions><nmea:speed>0.0</nmea:speed></extensions></trkpt><trkpt lon="11.2300105" lat="48.0573164"><ele>575.0</ele><time>2009-04-19T09:49:28.000Z</time><name>82229 Seefeld, Germany</name><extensions><nmea:speed>0.0</nmea:speed></extensions></trkpt><trkpt lon="11.2298132" lat="48.0571994"><ele>575.0</ele><time>2009-04-19T09:49:43.000Z</time><name>82229 Seefeld, Germany</name><extensions><nmea:speed>0.0</nmea:speed></extensions></trkpt><trkpt lon="11.2297098" lat="48.0571372"><ele>575.0</ele><time>2009-04-19T09:50:12.000Z</time><name>82229 Seefeld, Germany</name><extensions><nmea:speed>0.0</nmea:speed></extensions></trkpt><trkpt lon="11.2295894" lat="48.0570695"><ele>568.0</ele><time>2009-04-19T09:50:31.000Z</time><name>82229 Seefeld, Germany</name><extensions><nmea:speed>0.0</nmea:speed></extensions></trkpt><trkpt lon="11.2293895" lat="48.0569498"><ele>573.0</ele><time>2009-04-19T09:50:44.000Z</time><name>82229 Seefeld, Germany</name><extensions><nmea:speed>0.0</nmea:speed></extensions></trkpt><trkpt lon="11.229199" lat="48.0568542"><ele>573.0</ele><time>2009-04-19T09:50:56.000Z</time><name>82229 Seefeld, Germany</name><extensions><nmea:speed>0.0</nmea:speed></extensions></trkpt><trkpt lon="11.2290457" lat="48.0567691"><ele>573.0</ele><time>2009-04-19T09:51:07.000Z</time><name>82229 Seefeld, Germany</name><extensions><nmea:speed>0.0</nmea:speed></extensions></trkpt><trkpt lon="11.2287997" lat="48.0566655"><ele>573.0</ele><time>2009-04-19T09:51:22.000Z</time><name>82229 Seefeld, Germany</name><extensions><nmea:speed>0.0</nmea:speed></extensions></trkpt><trkpt lon="11.2285616" lat="48.056573"><ele>579.0</ele><time>2009-04-19T09:51:38.000Z</time><name>82229 Seefeld, Germany</name><extensions><nmea:speed>0.0</nmea:speed></extensions></trkpt><trkpt lon="11.2283606" lat="48.0564685"><ele>579.0</ele><time>2009-04-19T09:51:50.000Z</time><name>82229 Seefeld, Germany</name><extensions><nmea:speed>0.0</nmea:speed></extensions></trkpt><trkpt lon="11.2282021" lat="48.0563944"><ele>579.0</ele><time>2009-04-19T09:52:01.000Z</time><name>82229 Seefeld, Germany</name><extensions><nmea:speed>0.0</nmea:speed></extensions></trkpt><trkpt lon="11.2280529" lat="48.0563303"><ele>579.0</ele><time>2009-04-19T09:52:13.000Z</time><name>82229 Seefeld, Germany</name><extensions><nmea:speed>0.0</nmea:speed></extensions></trkpt><trkpt lon="11.2279057" lat="48.0562727"><ele>584.0</ele><time>2009-04-19T09:52:24.000Z</time><name>82229 Seefeld, Germany</name><extensions><nmea:speed>0.0</nmea:speed></extensions></trkpt><trkpt lon="11.2277639" lat="48.0562303"><ele>576.0</ele><time>2009-04-19T09:52:44.000Z</time><name>82229 Seefeld, Germany</name><extensions><nmea:speed>0.0</nmea:speed></extensions></trkpt><trkpt lon="11.2274456" lat="48.056174"><ele>576.0</ele><time>2009-04-19T09:53:10.000Z</time><name>Dellinger Weg 3, 82229 Seefeld, Germany</name><extensions><nmea:speed>0.0</nmea:speed></extensions></trkpt><trkpt lon="11.2272152" lat="48.0561323"><ele>576.0</ele><time>2009-04-19T09:53:23.000Z</time><name>Dellinger Weg 3, 82229 Seefeld, Germany</name><extensions><nmea:speed>0.0</nmea:speed></extensions></trkpt><trkpt lon="11.2270105" lat="48.0560884"><ele>581.0</ele><time>2009-04-19T09:53:36.000Z</time><name>Dellinger Weg 3, 82229 Seefeld, Germany</name><extensions><nmea:speed>0.0</nmea:speed></extensions></trkpt><trkpt lon="11.2268227" lat="48.0560477"><ele>581.0</ele><time>2009-04-19T09:53:47.000Z</time><name>Dellinger Weg 3, 82229 Seefeld, Germany</name><extensions><nmea:speed>0.0</nmea:speed></extensions></trkpt><trkpt lon="11.2266699" lat="48.0559891"><ele>581.0</ele><time>2009-04-19T09:53:57.000Z</time><name>Dellinger Weg 3, 82229 Seefeld, Germany</name><extensions><nmea:speed>0.0</nmea:speed></extensions></trkpt><trkpt lon="11.2265215" lat="48.0559409"><ele>581.0</ele><time>2009-04-19T09:54:07.000Z</time><name>Dellinger Weg 3, 82229 Seefeld, Germany</name><extensions><nmea:speed>0.0</nmea:speed></extensions></trkpt><trkpt lon="11.2263253" lat="48.0558905"><ele>581.0</ele><time>2009-04-19T09:54:19.000Z</time><name>Dellinger Weg 3, 82229 Seefeld, Germany</name><extensions><nmea:speed>0.0</nmea:speed></extensions></trkpt><trkpt lon="11.2259727" lat="48.0557903"><ele>583.0</ele><time>2009-04-19T09:54:41.000Z</time><name>Dellinger Weg 3, 82229 Seefeld, Germany</name><extensions><nmea:speed>0.0</nmea:speed></extensions></trkpt><trkpt lon="11.2257677" lat="48.0557491"><ele>583.0</ele><time>2009-04-19T09:54:53.000Z</time><name>Dellinger Weg 3, 82229 Seefeld, Germany</name><extensions><nmea:speed>0.0</nmea:speed></extensions></trkpt><trkpt lon="11.2255633" lat="48.0556925"><ele>583.0</ele><time>2009-04-19T09:55:06.000Z</time><name>Dellinger Weg 3, 82229 Seefeld, Germany</name><extensions><nmea:speed>0.0</nmea:speed></extensions></trkpt><trkpt lon="11.2254007" lat="48.0556639"><ele>585.0</ele><time>2009-04-19T09:55:16.000Z</time><name>Dellinger Weg 3, 82229 Seefeld, Germany</name><extensions><nmea:speed>0.0</nmea:speed></extensions></trkpt><trkpt lon="11.2251965" lat="48.0556094"><ele>585.0</ele><time>2009-04-19T09:55:27.000Z</time><name>Dellinger Weg 3, 82229 Seefeld, Germany</name><extensions><nmea:speed>0.0</nmea:speed></extensions></trkpt><trkpt lon="11.225032" lat="48.0555819"><ele>585.0</ele><time>2009-04-19T09:55:38.000Z</time><name>Dellinger Weg 3, 82229 Seefeld, Germany</name><extensions><nmea:speed>0.0</nmea:speed></extensions></trkpt><trkpt lon="11.2246735" lat="48.0554808"><ele>585.0</ele><time>2009-04-19T09:55:58.000Z</time><name>Dellinger Weg 3, 82229 Seefeld, Germany</name><extensions><nmea:speed>0.0</nmea:speed></extensions></trkpt><trkpt lon="11.2244453" lat="48.0553932"><ele>588.0</ele><time>2009-04-19T09:56:10.000Z</time><name>Dellinger Weg 2, 82229 Seefeld, Germany</name><extensions><nmea:speed>0.0</nmea:speed></extensions></trkpt><trkpt lon="11.2242459" lat="48.0553129"><ele>588.0</ele><time>2009-04-19T09:56:23.000Z</time><name>Dellinger Weg 2, 82229 Seefeld, Germany</name><extensions><nmea:speed>0.0</nmea:speed></extensions></trkpt><trkpt lon="11.2240788" lat="48.0552672"><ele>588.0</ele><time>2009-04-19T09:56:34.000Z</time><name>Dellinger Weg 2, 82229 Seefeld, Germany</name><extensions><nmea:speed>0.0</nmea:speed></extensions></trkpt><trkpt lon="11.2239705" lat="48.0551999"><ele>588.0</ele><time>2009-04-19T09:56:44.000Z</time><name>Dellinger Weg 2, 82229 Seefeld, Germany</name><extensions><nmea:speed>0.0</nmea:speed></extensions></trkpt><trkpt lon="11.223837" lat="48.055139"><ele>588.0</ele><time>2009-04-19T09:56:54.000Z</time><name>Dellinger Weg 2, 82229 Seefeld, Germany</name><extensions><nmea:speed>0.0</nmea:speed></extensions></trkpt><trkpt lon="11.2236689" lat="48.0551099"><ele>591.0</ele><time>2009-04-19T09:57:15.000Z</time><name>Dellinger Weg 2, 82229 Seefeld, Germany</name><extensions><nmea:speed>0.0</nmea:speed></extensions></trkpt><trkpt lon="11.2235388" lat="48.0551992"><ele>591.0</ele><time>2009-04-19T09:57:36.000Z</time><name>Dorfstraße 24-40, 82229 Seefeld, Germany</name><extensions><nmea:speed>0.0</nmea:speed></extensions></trkpt><trkpt lon="11.2233895" lat="48.0552308"><ele>591.0</ele><time>2009-04-19T09:58:34.000Z</time><name>Dorfstraße 24-40, 82229 Seefeld, Germany</name><extensions><nmea:speed>0.0</nmea:speed></extensions></trkpt><trkpt lon="11.2232148" lat="48.0552289"><ele>591.0</ele><time>2009-04-19T09:58:45.000Z</time><name>Dorfstraße 24-40, 82229 Seefeld, Germany</name><extensions><nmea:speed>0.0</nmea:speed></extensions></trkpt><trkpt lon="11.2230125" lat="48.0552213"><ele>591.0</ele><time>2009-04-19T09:58:56.000Z</time><name>Dorfstraße 24-40, 82229 Seefeld, Germany</name><extensions><nmea:speed>0.0</nmea:speed></extensions></trkpt><trkpt lon="11.2228059" lat="48.0552293"><ele>592.0</ele><time>2009-04-19T09:59:07.000Z</time><name>Dorfstraße 24-40, 82229 Seefeld, Germany</name><extensions><nmea:speed>0.0</nmea:speed></extensions></trkpt><trkpt lon="11.2226779" lat="48.0552587"><ele>592.0</ele><time>2009-04-19T09:59:18.000Z</time><name>Dorfstraße 24-40, 82229 Seefeld, Germany</name><extensions><nmea:speed>0.0</nmea:speed></extensions></trkpt><trkpt lon="11.2224796" lat="48.0552575"><ele>592.0</ele><time>2009-04-19T09:59:38.000Z</time><name>Dorfstraße 24-40, 82229 Seefeld, Germany</name><extensions><nmea:speed>0.0</nmea:speed></extensions></trkpt><trkpt lon="11.223272" lat="48.0550768"><ele>591.0</ele><time>2009-04-19T10:01:12.000Z</time><name>Dorfstraße 24-40, 82229 Seefeld, Germany</name><extensions><nmea:speed>0.0</nmea:speed></extensions></trkpt><trkpt lon="11.2235517" lat="48.0549629"><ele>591.0</ele><time>2009-04-19T10:01:31.000Z</time><name>Dellinger Weg 2, 82229 Seefeld, Germany</name><extensions><nmea:speed>0.0</nmea:speed></extensions></trkpt><trkpt lon="11.2239872" lat="48.0549077"><ele>588.0</ele><time>2009-04-19T10:01:51.000Z</time><name>Dellinger Weg 2, 82229 Seefeld, Germany</name><extensions><nmea:speed>0.0</nmea:speed></extensions></trkpt></trkseg></trk></gpx>